<?xml version="1.0" encoding="UTF-8" standalone="no" ?>
<gpx xmlns="http://www.topografix.com/GPX/1/1" xmlns:xsi="http://www.w3.org/2001/XMLSchema-instance" xsi:schemaLocation="http://www.topografix.com/GPX/1/1 http://www.topografix.com/GPX/1/1/gpx.xsd" version="1.1" creator="VisuGPX - https://www.visugpx.com">
  <metadata>
    <name>83 - L - Lorgues</name>
    <desc><![CDATA[83 - L - Lorgues - Défens neuf - la colle 16/12/2024]]></desc>
  </metadata>
  <trk>
    <name><![CDATA[Lorgues nord defens neuf la colle 2024-12-16-01]]></name>
    <trkseg>
      <trkpt lat="43.50102" lon="6.37345">
        <ele>278.5</ele>
        <time>2024-12-16T08:21:28Z</time>
      </trkpt>
      <trkpt lat="43.50102" lon="6.37345">
        <ele>278.5</ele>
        <time>2024-12-16T08:21:29Z</time>
      </trkpt>
      <trkpt lat="43.50109" lon="6.37336">
        <ele>278</ele>
        <time>2024-12-16T08:22:00Z</time>
      </trkpt>
      <trkpt lat="43.50116" lon="6.37326">
        <ele>276.9</ele>
        <time>2024-12-16T08:22:08Z</time>
      </trkpt>
      <trkpt lat="43.50125" lon="6.37329">
        <ele>276.3</ele>
        <time>2024-12-16T08:22:18Z</time>
      </trkpt>
      <trkpt lat="43.50132" lon="6.37338">
        <ele>276.9</ele>
        <time>2024-12-16T08:22:28Z</time>
      </trkpt>
      <trkpt lat="43.50133" lon="6.37351">
        <ele>278.3</ele>
        <time>2024-12-16T08:22:41Z</time>
      </trkpt>
      <trkpt lat="43.5013" lon="6.37362">
        <ele>279.2</ele>
        <time>2024-12-16T08:22:54Z</time>
      </trkpt>
      <trkpt lat="43.50127" lon="6.37376">
        <ele>279.6</ele>
        <time>2024-12-16T08:23:26Z</time>
      </trkpt>
      <trkpt lat="43.50123" lon="6.37388">
        <ele>279.6</ele>
        <time>2024-12-16T08:23:36Z</time>
      </trkpt>
      <trkpt lat="43.50122" lon="6.374">
        <ele>279.3</ele>
        <time>2024-12-16T08:23:46Z</time>
      </trkpt>
      <trkpt lat="43.50122" lon="6.37413">
        <ele>279.3</ele>
        <time>2024-12-16T08:23:56Z</time>
      </trkpt>
      <trkpt lat="43.50121" lon="6.37425">
        <ele>280</ele>
        <time>2024-12-16T08:24:07Z</time>
      </trkpt>
      <trkpt lat="43.5012" lon="6.37438">
        <ele>279.2</ele>
        <time>2024-12-16T08:24:20Z</time>
      </trkpt>
      <trkpt lat="43.50119" lon="6.37451">
        <ele>278</ele>
        <time>2024-12-16T08:24:34Z</time>
      </trkpt>
      <trkpt lat="43.50122" lon="6.37464">
        <ele>276.9</ele>
        <time>2024-12-16T08:24:47Z</time>
      </trkpt>
      <trkpt lat="43.50126" lon="6.37476">
        <ele>273.5</ele>
        <time>2024-12-16T08:24:59Z</time>
      </trkpt>
      <trkpt lat="43.50133" lon="6.37485">
        <ele>273.5</ele>
        <time>2024-12-16T08:25:11Z</time>
      </trkpt>
      <trkpt lat="43.50139" lon="6.37495">
        <ele>273</ele>
        <time>2024-12-16T08:25:20Z</time>
      </trkpt>
      <trkpt lat="43.50148" lon="6.37501">
        <ele>272.4</ele>
        <time>2024-12-16T08:25:32Z</time>
      </trkpt>
      <trkpt lat="43.50156" lon="6.37507">
        <ele>272.5</ele>
        <time>2024-12-16T08:25:42Z</time>
      </trkpt>
      <trkpt lat="43.50164" lon="6.37513">
        <ele>272.2</ele>
        <time>2024-12-16T08:25:52Z</time>
      </trkpt>
      <trkpt lat="43.50172" lon="6.37519">
        <ele>272.8</ele>
        <time>2024-12-16T08:26:02Z</time>
      </trkpt>
      <trkpt lat="43.50179" lon="6.37526">
        <ele>273.4</ele>
        <time>2024-12-16T08:26:09Z</time>
      </trkpt>
      <trkpt lat="43.50187" lon="6.37532">
        <ele>272.6</ele>
        <time>2024-12-16T08:26:21Z</time>
      </trkpt>
      <trkpt lat="43.50195" lon="6.37539">
        <ele>273</ele>
        <time>2024-12-16T08:26:30Z</time>
      </trkpt>
      <trkpt lat="43.50203" lon="6.37547">
        <ele>273.1</ele>
        <time>2024-12-16T08:26:41Z</time>
      </trkpt>
      <trkpt lat="43.50211" lon="6.37553">
        <ele>273.7</ele>
        <time>2024-12-16T08:26:53Z</time>
      </trkpt>
      <trkpt lat="43.50219" lon="6.37561">
        <ele>274</ele>
        <time>2024-12-16T08:27:03Z</time>
      </trkpt>
      <trkpt lat="43.50228" lon="6.37563">
        <ele>275.3</ele>
        <time>2024-12-16T08:27:13Z</time>
      </trkpt>
      <trkpt lat="43.50235" lon="6.37571">
        <ele>275.8</ele>
        <time>2024-12-16T08:27:42Z</time>
      </trkpt>
      <trkpt lat="43.50243" lon="6.37578">
        <ele>276.8</ele>
        <time>2024-12-16T08:28:08Z</time>
      </trkpt>
      <trkpt lat="43.50251" lon="6.37586">
        <ele>278</ele>
        <time>2024-12-16T08:28:21Z</time>
      </trkpt>
      <trkpt lat="43.50258" lon="6.37593">
        <ele>280.2</ele>
        <time>2024-12-16T08:28:32Z</time>
      </trkpt>
      <trkpt lat="43.50266" lon="6.376">
        <ele>281.9</ele>
        <time>2024-12-16T08:28:46Z</time>
      </trkpt>
      <trkpt lat="43.50273" lon="6.37609">
        <ele>282.8</ele>
        <time>2024-12-16T08:28:57Z</time>
      </trkpt>
      <trkpt lat="43.5028" lon="6.37617">
        <ele>283.9</ele>
        <time>2024-12-16T08:29:09Z</time>
      </trkpt>
      <trkpt lat="43.50289" lon="6.37624">
        <ele>285.3</ele>
        <time>2024-12-16T08:29:21Z</time>
      </trkpt>
      <trkpt lat="43.50296" lon="6.37632">
        <ele>287.3</ele>
        <time>2024-12-16T08:29:43Z</time>
      </trkpt>
      <trkpt lat="43.50304" lon="6.37639">
        <ele>288.3</ele>
        <time>2024-12-16T08:29:55Z</time>
      </trkpt>
      <trkpt lat="43.50311" lon="6.37648">
        <ele>289.3</ele>
        <time>2024-12-16T08:30:06Z</time>
      </trkpt>
      <trkpt lat="43.50318" lon="6.37658">
        <ele>290.8</ele>
        <time>2024-12-16T08:30:19Z</time>
      </trkpt>
      <trkpt lat="43.50327" lon="6.37663">
        <ele>291.4</ele>
        <time>2024-12-16T08:30:30Z</time>
      </trkpt>
      <trkpt lat="43.50334" lon="6.37672">
        <ele>293.3</ele>
        <time>2024-12-16T08:30:52Z</time>
      </trkpt>
      <trkpt lat="43.50341" lon="6.37681">
        <ele>292.8</ele>
        <time>2024-12-16T08:31:56Z</time>
      </trkpt>
      <trkpt lat="43.50349" lon="6.37686">
        <ele>292.3</ele>
        <time>2024-12-16T08:32:25Z</time>
      </trkpt>
      <trkpt lat="43.50355" lon="6.37696">
        <ele>292.4</ele>
        <time>2024-12-16T08:32:35Z</time>
      </trkpt>
      <trkpt lat="43.50361" lon="6.37706">
        <ele>292</ele>
        <time>2024-12-16T08:32:49Z</time>
      </trkpt>
      <trkpt lat="43.50368" lon="6.37717">
        <ele>291.4</ele>
        <time>2024-12-16T08:33:00Z</time>
      </trkpt>
      <trkpt lat="43.50376" lon="6.37723">
        <ele>290.9</ele>
        <time>2024-12-16T08:33:09Z</time>
      </trkpt>
      <trkpt lat="43.50383" lon="6.3773">
        <ele>290.3</ele>
        <time>2024-12-16T08:33:20Z</time>
      </trkpt>
      <trkpt lat="43.50392" lon="6.37737">
        <ele>289.8</ele>
        <time>2024-12-16T08:33:30Z</time>
      </trkpt>
      <trkpt lat="43.50397" lon="6.37747">
        <ele>289.2</ele>
        <time>2024-12-16T08:33:41Z</time>
      </trkpt>
      <trkpt lat="43.50405" lon="6.37755">
        <ele>288.9</ele>
        <time>2024-12-16T08:33:50Z</time>
      </trkpt>
      <trkpt lat="43.50413" lon="6.37762">
        <ele>289.2</ele>
        <time>2024-12-16T08:33:59Z</time>
      </trkpt>
      <trkpt lat="43.50418" lon="6.37773">
        <ele>289.4</ele>
        <time>2024-12-16T08:34:08Z</time>
      </trkpt>
      <trkpt lat="43.5042" lon="6.37787">
        <ele>289.6</ele>
        <time>2024-12-16T08:34:20Z</time>
      </trkpt>
      <trkpt lat="43.5042" lon="6.37801">
        <ele>288</ele>
        <time>2024-12-16T08:34:33Z</time>
      </trkpt>
      <trkpt lat="43.50418" lon="6.37813">
        <ele>287.6</ele>
        <time>2024-12-16T08:34:43Z</time>
      </trkpt>
      <trkpt lat="43.50415" lon="6.37825">
        <ele>286.5</ele>
        <time>2024-12-16T08:34:53Z</time>
      </trkpt>
      <trkpt lat="43.50412" lon="6.37838">
        <ele>286.4</ele>
        <time>2024-12-16T08:35:03Z</time>
      </trkpt>
      <trkpt lat="43.50409" lon="6.37851">
        <ele>286.3</ele>
        <time>2024-12-16T08:35:16Z</time>
      </trkpt>
      <trkpt lat="43.50408" lon="6.37864">
        <ele>286.8</ele>
        <time>2024-12-16T08:35:24Z</time>
      </trkpt>
      <trkpt lat="43.50407" lon="6.37876">
        <ele>286</ele>
        <time>2024-12-16T08:35:33Z</time>
      </trkpt>
      <trkpt lat="43.50405" lon="6.37888">
        <ele>285.7</ele>
        <time>2024-12-16T08:35:48Z</time>
      </trkpt>
      <trkpt lat="43.50407" lon="6.37902">
        <ele>284.7</ele>
        <time>2024-12-16T08:36:01Z</time>
      </trkpt>
      <trkpt lat="43.50408" lon="6.37914">
        <ele>284.2</ele>
        <time>2024-12-16T08:36:17Z</time>
      </trkpt>
      <trkpt lat="43.50408" lon="6.37927">
        <ele>283.8</ele>
        <time>2024-12-16T08:36:30Z</time>
      </trkpt>
      <trkpt lat="43.50411" lon="6.37939">
        <ele>283.5</ele>
        <time>2024-12-16T08:37:03Z</time>
      </trkpt>
      <trkpt lat="43.50413" lon="6.37951">
        <ele>281.9</ele>
        <time>2024-12-16T08:37:25Z</time>
      </trkpt>
      <trkpt lat="43.50419" lon="6.37962">
        <ele>280.6</ele>
        <time>2024-12-16T08:37:35Z</time>
      </trkpt>
      <trkpt lat="43.50422" lon="6.37974">
        <ele>279.1</ele>
        <time>2024-12-16T08:37:42Z</time>
      </trkpt>
      <trkpt lat="43.50424" lon="6.37986">
        <ele>277.7</ele>
        <time>2024-12-16T08:37:51Z</time>
      </trkpt>
      <trkpt lat="43.50429" lon="6.37998">
        <ele>277.3</ele>
        <time>2024-12-16T08:38:05Z</time>
      </trkpt>
      <trkpt lat="43.50434" lon="6.38008">
        <ele>276.2</ele>
        <time>2024-12-16T08:38:14Z</time>
      </trkpt>
      <trkpt lat="43.50439" lon="6.38019">
        <ele>275.1</ele>
        <time>2024-12-16T08:38:25Z</time>
      </trkpt>
      <trkpt lat="43.50445" lon="6.38029">
        <ele>274.4</ele>
        <time>2024-12-16T08:38:38Z</time>
      </trkpt>
      <trkpt lat="43.50452" lon="6.38037">
        <ele>273.3</ele>
        <time>2024-12-16T08:38:52Z</time>
      </trkpt>
      <trkpt lat="43.5046" lon="6.38041">
        <ele>271.9</ele>
        <time>2024-12-16T08:39:09Z</time>
      </trkpt>
      <trkpt lat="43.50469" lon="6.38047">
        <ele>270.4</ele>
        <time>2024-12-16T08:39:24Z</time>
      </trkpt>
      <trkpt lat="43.50478" lon="6.38052">
        <ele>269.2</ele>
        <time>2024-12-16T08:39:37Z</time>
      </trkpt>
      <trkpt lat="43.50486" lon="6.38059">
        <ele>268.4</ele>
        <time>2024-12-16T08:40:04Z</time>
      </trkpt>
      <trkpt lat="43.50495" lon="6.38058">
        <ele>267.8</ele>
        <time>2024-12-16T08:40:29Z</time>
      </trkpt>
      <trkpt lat="43.50501" lon="6.38067">
        <ele>265.4</ele>
        <time>2024-12-16T08:42:04Z</time>
      </trkpt>
      <trkpt lat="43.50509" lon="6.38072">
        <ele>263.4</ele>
        <time>2024-12-16T08:42:23Z</time>
      </trkpt>
      <trkpt lat="43.50519" lon="6.38072">
        <ele>262.2</ele>
        <time>2024-12-16T08:42:35Z</time>
      </trkpt>
      <trkpt lat="43.50528" lon="6.38068">
        <ele>261.1</ele>
        <time>2024-12-16T08:42:46Z</time>
      </trkpt>
      <trkpt lat="43.50536" lon="6.38063">
        <ele>259.3</ele>
        <time>2024-12-16T08:43:02Z</time>
      </trkpt>
      <trkpt lat="43.50547" lon="6.38061">
        <ele>257.9</ele>
        <time>2024-12-16T08:43:16Z</time>
      </trkpt>
      <trkpt lat="43.50556" lon="6.38059">
        <ele>256.3</ele>
        <time>2024-12-16T08:43:29Z</time>
      </trkpt>
      <trkpt lat="43.50565" lon="6.38054">
        <ele>255</ele>
        <time>2024-12-16T08:43:47Z</time>
      </trkpt>
      <trkpt lat="43.50574" lon="6.38054">
        <ele>253.6</ele>
        <time>2024-12-16T08:44:04Z</time>
      </trkpt>
      <trkpt lat="43.50584" lon="6.38051">
        <ele>252.4</ele>
        <time>2024-12-16T08:44:18Z</time>
      </trkpt>
      <trkpt lat="43.50593" lon="6.38049">
        <ele>251.1</ele>
        <time>2024-12-16T08:44:31Z</time>
      </trkpt>
      <trkpt lat="43.50602" lon="6.38049">
        <ele>249.8</ele>
        <time>2024-12-16T08:44:48Z</time>
      </trkpt>
      <trkpt lat="43.50611" lon="6.38044">
        <ele>248.7</ele>
        <time>2024-12-16T08:45:01Z</time>
      </trkpt>
      <trkpt lat="43.5062" lon="6.3804">
        <ele>247.8</ele>
        <time>2024-12-16T08:45:14Z</time>
      </trkpt>
      <trkpt lat="43.50629" lon="6.38035">
        <ele>246.8</ele>
        <time>2024-12-16T08:45:29Z</time>
      </trkpt>
      <trkpt lat="43.50638" lon="6.38032">
        <ele>245.7</ele>
        <time>2024-12-16T08:45:48Z</time>
      </trkpt>
      <trkpt lat="43.50647" lon="6.38028">
        <ele>244.5</ele>
        <time>2024-12-16T08:46:02Z</time>
      </trkpt>
      <trkpt lat="43.50655" lon="6.38023">
        <ele>243.7</ele>
        <time>2024-12-16T08:46:15Z</time>
      </trkpt>
      <trkpt lat="43.50664" lon="6.38021">
        <ele>242.8</ele>
        <time>2024-12-16T08:46:29Z</time>
      </trkpt>
      <trkpt lat="43.50673" lon="6.38016">
        <ele>242.2</ele>
        <time>2024-12-16T08:46:41Z</time>
      </trkpt>
      <trkpt lat="43.50681" lon="6.38009">
        <ele>241.7</ele>
        <time>2024-12-16T08:46:53Z</time>
      </trkpt>
      <trkpt lat="43.50691" lon="6.38008">
        <ele>240.9</ele>
        <time>2024-12-16T08:47:09Z</time>
      </trkpt>
      <trkpt lat="43.50699" lon="6.38006">
        <ele>240.3</ele>
        <time>2024-12-16T08:47:23Z</time>
      </trkpt>
      <trkpt lat="43.50708" lon="6.38">
        <ele>239.2</ele>
        <time>2024-12-16T08:47:37Z</time>
      </trkpt>
      <trkpt lat="43.50717" lon="6.37998">
        <ele>238</ele>
        <time>2024-12-16T08:47:51Z</time>
      </trkpt>
      <trkpt lat="43.50726" lon="6.37992">
        <ele>236.5</ele>
        <time>2024-12-16T08:48:05Z</time>
      </trkpt>
      <trkpt lat="43.50734" lon="6.37987">
        <ele>235.2</ele>
        <time>2024-12-16T08:48:22Z</time>
      </trkpt>
      <trkpt lat="43.50741" lon="6.37995">
        <ele>235</ele>
        <time>2024-12-16T08:48:37Z</time>
      </trkpt>
      <trkpt lat="43.5075" lon="6.3799">
        <ele>235.1</ele>
        <time>2024-12-16T08:50:34Z</time>
      </trkpt>
      <trkpt lat="43.50759" lon="6.3799">
        <ele>234.5</ele>
        <time>2024-12-16T08:50:50Z</time>
      </trkpt>
      <trkpt lat="43.50768" lon="6.37986">
        <ele>234.1</ele>
        <time>2024-12-16T08:51:03Z</time>
      </trkpt>
      <trkpt lat="43.50777" lon="6.37986">
        <ele>233.9</ele>
        <time>2024-12-16T08:51:14Z</time>
      </trkpt>
      <trkpt lat="43.50769" lon="6.37981">
        <ele>233.8</ele>
        <time>2024-12-16T08:52:08Z</time>
      </trkpt>
      <trkpt lat="43.50761" lon="6.37988">
        <ele>234.2</ele>
        <time>2024-12-16T08:52:40Z</time>
      </trkpt>
      <trkpt lat="43.50769" lon="6.37982">
        <ele>233.7</ele>
        <time>2024-12-16T08:53:18Z</time>
      </trkpt>
      <trkpt lat="43.50778" lon="6.37982">
        <ele>233.3</ele>
        <time>2024-12-16T08:53:35Z</time>
      </trkpt>
      <trkpt lat="43.50788" lon="6.37979">
        <ele>233.2</ele>
        <time>2024-12-16T08:53:46Z</time>
      </trkpt>
      <trkpt lat="43.50797" lon="6.37978">
        <ele>232.9</ele>
        <time>2024-12-16T08:53:57Z</time>
      </trkpt>
      <trkpt lat="43.50806" lon="6.37981">
        <ele>232.5</ele>
        <time>2024-12-16T08:54:05Z</time>
      </trkpt>
      <trkpt lat="43.50815" lon="6.37985">
        <ele>232.3</ele>
        <time>2024-12-16T08:54:15Z</time>
      </trkpt>
      <trkpt lat="43.50825" lon="6.37988">
        <ele>231.7</ele>
        <time>2024-12-16T08:54:26Z</time>
      </trkpt>
      <trkpt lat="43.50833" lon="6.37992">
        <ele>231.6</ele>
        <time>2024-12-16T08:54:38Z</time>
      </trkpt>
      <trkpt lat="43.50843" lon="6.3799">
        <ele>231.5</ele>
        <time>2024-12-16T08:55:14Z</time>
      </trkpt>
      <trkpt lat="43.50851" lon="6.37993">
        <ele>233</ele>
        <time>2024-12-16T08:55:35Z</time>
      </trkpt>
      <trkpt lat="43.5086" lon="6.37996">
        <ele>233.4</ele>
        <time>2024-12-16T08:55:56Z</time>
      </trkpt>
      <trkpt lat="43.50869" lon="6.38001">
        <ele>234.4</ele>
        <time>2024-12-16T08:56:11Z</time>
      </trkpt>
      <trkpt lat="43.50878" lon="6.38005">
        <ele>235.2</ele>
        <time>2024-12-16T08:56:25Z</time>
      </trkpt>
      <trkpt lat="43.50887" lon="6.38007">
        <ele>235.3</ele>
        <time>2024-12-16T08:56:37Z</time>
      </trkpt>
      <trkpt lat="43.50896" lon="6.38012">
        <ele>236</ele>
        <time>2024-12-16T08:57:09Z</time>
      </trkpt>
      <trkpt lat="43.50904" lon="6.38004">
        <ele>236.1</ele>
        <time>2024-12-16T08:57:22Z</time>
      </trkpt>
      <trkpt lat="43.50913" lon="6.37997">
        <ele>236.1</ele>
        <time>2024-12-16T08:57:34Z</time>
      </trkpt>
      <trkpt lat="43.50922" lon="6.37995">
        <ele>236.5</ele>
        <time>2024-12-16T08:57:44Z</time>
      </trkpt>
      <trkpt lat="43.50931" lon="6.37992">
        <ele>236.6</ele>
        <time>2024-12-16T08:57:57Z</time>
      </trkpt>
      <trkpt lat="43.50939" lon="6.37986">
        <ele>237.3</ele>
        <time>2024-12-16T08:58:07Z</time>
      </trkpt>
      <trkpt lat="43.50949" lon="6.37986">
        <ele>238.1</ele>
        <time>2024-12-16T08:58:19Z</time>
      </trkpt>
      <trkpt lat="43.50958" lon="6.37986">
        <ele>238.7</ele>
        <time>2024-12-16T08:58:36Z</time>
      </trkpt>
      <trkpt lat="43.50967" lon="6.3798">
        <ele>239.9</ele>
        <time>2024-12-16T08:59:01Z</time>
      </trkpt>
      <trkpt lat="43.50976" lon="6.37977">
        <ele>240.1</ele>
        <time>2024-12-16T08:59:14Z</time>
      </trkpt>
      <trkpt lat="43.50985" lon="6.37974">
        <ele>240.6</ele>
        <time>2024-12-16T08:59:30Z</time>
      </trkpt>
      <trkpt lat="43.50993" lon="6.37966">
        <ele>241.4</ele>
        <time>2024-12-16T08:59:42Z</time>
      </trkpt>
      <trkpt lat="43.51" lon="6.37957">
        <ele>242.6</ele>
        <time>2024-12-16T08:59:57Z</time>
      </trkpt>
      <trkpt lat="43.51004" lon="6.37945">
        <ele>244.2</ele>
        <time>2024-12-16T09:00:14Z</time>
      </trkpt>
      <trkpt lat="43.51008" lon="6.37933">
        <ele>245.1</ele>
        <time>2024-12-16T09:00:28Z</time>
      </trkpt>
      <trkpt lat="43.51008" lon="6.3792">
        <ele>246.4</ele>
        <time>2024-12-16T09:00:39Z</time>
      </trkpt>
      <trkpt lat="43.51008" lon="6.37907">
        <ele>247</ele>
        <time>2024-12-16T09:00:49Z</time>
      </trkpt>
      <trkpt lat="43.51009" lon="6.37894">
        <ele>248.2</ele>
        <time>2024-12-16T09:01:01Z</time>
      </trkpt>
      <trkpt lat="43.51014" lon="6.37883">
        <ele>250.4</ele>
        <time>2024-12-16T09:01:18Z</time>
      </trkpt>
      <trkpt lat="43.51016" lon="6.37896">
        <ele>248.6</ele>
        <time>2024-12-16T09:01:56Z</time>
      </trkpt>
      <trkpt lat="43.51014" lon="6.37909">
        <ele>247.7</ele>
        <time>2024-12-16T09:02:14Z</time>
      </trkpt>
      <trkpt lat="43.51011" lon="6.37922">
        <ele>246.4</ele>
        <time>2024-12-16T09:02:24Z</time>
      </trkpt>
      <trkpt lat="43.51008" lon="6.37935">
        <ele>245.2</ele>
        <time>2024-12-16T09:02:34Z</time>
      </trkpt>
      <trkpt lat="43.51008" lon="6.37949">
        <ele>243.9</ele>
        <time>2024-12-16T09:02:44Z</time>
      </trkpt>
      <trkpt lat="43.51004" lon="6.37962">
        <ele>242.5</ele>
        <time>2024-12-16T09:02:53Z</time>
      </trkpt>
      <trkpt lat="43.50998" lon="6.37973">
        <ele>241.5</ele>
        <time>2024-12-16T09:03:01Z</time>
      </trkpt>
      <trkpt lat="43.5099" lon="6.37982">
        <ele>240.9</ele>
        <time>2024-12-16T09:03:10Z</time>
      </trkpt>
      <trkpt lat="43.50997" lon="6.37991">
        <ele>239.2</ele>
        <time>2024-12-16T09:03:51Z</time>
      </trkpt>
      <trkpt lat="43.51006" lon="6.37991">
        <ele>238.6</ele>
        <time>2024-12-16T09:04:08Z</time>
      </trkpt>
      <trkpt lat="43.51016" lon="6.37993">
        <ele>238</ele>
        <time>2024-12-16T09:04:18Z</time>
      </trkpt>
      <trkpt lat="43.51026" lon="6.37995">
        <ele>237.6</ele>
        <time>2024-12-16T09:04:28Z</time>
      </trkpt>
      <trkpt lat="43.51035" lon="6.37998">
        <ele>236.6</ele>
        <time>2024-12-16T09:04:39Z</time>
      </trkpt>
      <trkpt lat="43.51045" lon="6.38">
        <ele>236</ele>
        <time>2024-12-16T09:04:51Z</time>
      </trkpt>
      <trkpt lat="43.51054" lon="6.38004">
        <ele>235.7</ele>
        <time>2024-12-16T09:05:05Z</time>
      </trkpt>
      <trkpt lat="43.51063" lon="6.38004">
        <ele>235.2</ele>
        <time>2024-12-16T09:05:14Z</time>
      </trkpt>
      <trkpt lat="43.51072" lon="6.38008">
        <ele>234.4</ele>
        <time>2024-12-16T09:05:27Z</time>
      </trkpt>
      <trkpt lat="43.51081" lon="6.3801">
        <ele>233</ele>
        <time>2024-12-16T09:05:44Z</time>
      </trkpt>
      <trkpt lat="43.5109" lon="6.38013">
        <ele>231.7</ele>
        <time>2024-12-16T09:05:58Z</time>
      </trkpt>
      <trkpt lat="43.511" lon="6.38014">
        <ele>230.6</ele>
        <time>2024-12-16T09:06:09Z</time>
      </trkpt>
      <trkpt lat="43.51109" lon="6.38017">
        <ele>229.2</ele>
        <time>2024-12-16T09:06:26Z</time>
      </trkpt>
      <trkpt lat="43.51118" lon="6.38013">
        <ele>228</ele>
        <time>2024-12-16T09:06:45Z</time>
      </trkpt>
      <trkpt lat="43.51126" lon="6.38005">
        <ele>226.4</ele>
        <time>2024-12-16T09:07:04Z</time>
      </trkpt>
      <trkpt lat="43.51132" lon="6.37995">
        <ele>225.8</ele>
        <time>2024-12-16T09:07:13Z</time>
      </trkpt>
      <trkpt lat="43.51139" lon="6.37988">
        <ele>225.5</ele>
        <time>2024-12-16T09:07:27Z</time>
      </trkpt>
      <trkpt lat="43.51147" lon="6.37983">
        <ele>224.7</ele>
        <time>2024-12-16T09:07:39Z</time>
      </trkpt>
      <trkpt lat="43.51151" lon="6.37971">
        <ele>224</ele>
        <time>2024-12-16T09:07:55Z</time>
      </trkpt>
      <trkpt lat="43.51156" lon="6.37961">
        <ele>223.3</ele>
        <time>2024-12-16T09:08:07Z</time>
      </trkpt>
      <trkpt lat="43.51163" lon="6.3795">
        <ele>222.7</ele>
        <time>2024-12-16T09:08:21Z</time>
      </trkpt>
      <trkpt lat="43.51165" lon="6.37937">
        <ele>221.5</ele>
        <time>2024-12-16T09:08:35Z</time>
      </trkpt>
      <trkpt lat="43.51169" lon="6.37925">
        <ele>220.4</ele>
        <time>2024-12-16T09:08:50Z</time>
      </trkpt>
      <trkpt lat="43.51169" lon="6.3791">
        <ele>219.3</ele>
        <time>2024-12-16T09:09:03Z</time>
      </trkpt>
      <trkpt lat="43.51172" lon="6.37898">
        <ele>218.6</ele>
        <time>2024-12-16T09:09:20Z</time>
      </trkpt>
      <trkpt lat="43.51181" lon="6.379">
        <ele>219.7</ele>
        <time>2024-12-16T09:10:51Z</time>
      </trkpt>
      <trkpt lat="43.5119" lon="6.37897">
        <ele>220.7</ele>
        <time>2024-12-16T09:13:09Z</time>
      </trkpt>
      <trkpt lat="43.51199" lon="6.37902">
        <ele>221.6</ele>
        <time>2024-12-16T09:13:25Z</time>
      </trkpt>
      <trkpt lat="43.51208" lon="6.37896">
        <ele>223.4</ele>
        <time>2024-12-16T09:13:45Z</time>
      </trkpt>
      <trkpt lat="43.51215" lon="6.37887">
        <ele>224.9</ele>
        <time>2024-12-16T09:13:58Z</time>
      </trkpt>
      <trkpt lat="43.51217" lon="6.37875">
        <ele>227</ele>
        <time>2024-12-16T09:14:19Z</time>
      </trkpt>
      <trkpt lat="43.51213" lon="6.37863">
        <ele>228.5</ele>
        <time>2024-12-16T09:14:32Z</time>
      </trkpt>
      <trkpt lat="43.51212" lon="6.37851">
        <ele>229.8</ele>
        <time>2024-12-16T09:14:47Z</time>
      </trkpt>
      <trkpt lat="43.51209" lon="6.37839">
        <ele>231.2</ele>
        <time>2024-12-16T09:15:01Z</time>
      </trkpt>
      <trkpt lat="43.51207" lon="6.37827">
        <ele>233.1</ele>
        <time>2024-12-16T09:15:21Z</time>
      </trkpt>
      <trkpt lat="43.51205" lon="6.37814">
        <ele>234.7</ele>
        <time>2024-12-16T09:15:41Z</time>
      </trkpt>
      <trkpt lat="43.512" lon="6.37803">
        <ele>236.5</ele>
        <time>2024-12-16T09:16:01Z</time>
      </trkpt>
      <trkpt lat="43.51202" lon="6.37791">
        <ele>237.1</ele>
        <time>2024-12-16T09:16:13Z</time>
      </trkpt>
      <trkpt lat="43.51199" lon="6.37779">
        <ele>238.2</ele>
        <time>2024-12-16T09:16:42Z</time>
      </trkpt>
      <trkpt lat="43.51196" lon="6.37767">
        <ele>239.1</ele>
        <time>2024-12-16T09:16:56Z</time>
      </trkpt>
      <trkpt lat="43.51192" lon="6.37756">
        <ele>240.3</ele>
        <time>2024-12-16T09:17:12Z</time>
      </trkpt>
      <trkpt lat="43.51188" lon="6.37745">
        <ele>241.7</ele>
        <time>2024-12-16T09:17:29Z</time>
      </trkpt>
      <trkpt lat="43.51187" lon="6.37732">
        <ele>243.6</ele>
        <time>2024-12-16T09:18:21Z</time>
      </trkpt>
      <trkpt lat="43.51183" lon="6.3772">
        <ele>246</ele>
        <time>2024-12-16T09:18:46Z</time>
      </trkpt>
      <trkpt lat="43.51181" lon="6.37707">
        <ele>248</ele>
        <time>2024-12-16T09:19:05Z</time>
      </trkpt>
      <trkpt lat="43.51179" lon="6.37695">
        <ele>249.9</ele>
        <time>2024-12-16T09:19:27Z</time>
      </trkpt>
      <trkpt lat="43.51181" lon="6.37683">
        <ele>252.5</ele>
        <time>2024-12-16T09:19:54Z</time>
      </trkpt>
      <trkpt lat="43.51178" lon="6.3767">
        <ele>256</ele>
        <time>2024-12-16T09:20:18Z</time>
      </trkpt>
      <trkpt lat="43.51177" lon="6.37658">
        <ele>257.7</ele>
        <time>2024-12-16T09:20:32Z</time>
      </trkpt>
      <trkpt lat="43.51175" lon="6.37645">
        <ele>259.8</ele>
        <time>2024-12-16T09:20:48Z</time>
      </trkpt>
      <trkpt lat="43.5118" lon="6.37634">
        <ele>263.8</ele>
        <time>2024-12-16T09:23:36Z</time>
      </trkpt>
      <trkpt lat="43.51174" lon="6.37624">
        <ele>266</ele>
        <time>2024-12-16T09:23:59Z</time>
      </trkpt>
      <trkpt lat="43.51168" lon="6.37615">
        <ele>269.8</ele>
        <time>2024-12-16T09:24:35Z</time>
      </trkpt>
      <trkpt lat="43.51171" lon="6.37603">
        <ele>271.3</ele>
        <time>2024-12-16T09:24:59Z</time>
      </trkpt>
      <trkpt lat="43.51175" lon="6.37591">
        <ele>272.6</ele>
        <time>2024-12-16T09:25:16Z</time>
      </trkpt>
      <trkpt lat="43.51178" lon="6.37579">
        <ele>273.7</ele>
        <time>2024-12-16T09:25:32Z</time>
      </trkpt>
      <trkpt lat="43.51181" lon="6.37568">
        <ele>276</ele>
        <time>2024-12-16T09:26:36Z</time>
      </trkpt>
      <trkpt lat="43.51178" lon="6.37556">
        <ele>277.7</ele>
        <time>2024-12-16T09:28:44Z</time>
      </trkpt>
      <trkpt lat="43.5117" lon="6.37548">
        <ele>279.8</ele>
        <time>2024-12-16T09:29:08Z</time>
      </trkpt>
      <trkpt lat="43.51161" lon="6.37546">
        <ele>282.1</ele>
        <time>2024-12-16T09:29:27Z</time>
      </trkpt>
      <trkpt lat="43.51156" lon="6.37536">
        <ele>283.5</ele>
        <time>2024-12-16T09:29:42Z</time>
      </trkpt>
      <trkpt lat="43.51151" lon="6.37526">
        <ele>284.9</ele>
        <time>2024-12-16T09:29:56Z</time>
      </trkpt>
      <trkpt lat="43.51144" lon="6.37517">
        <ele>286.7</ele>
        <time>2024-12-16T09:30:15Z</time>
      </trkpt>
      <trkpt lat="43.51142" lon="6.37505">
        <ele>288</ele>
        <time>2024-12-16T09:30:48Z</time>
      </trkpt>
      <trkpt lat="43.51139" lon="6.37492">
        <ele>290.1</ele>
        <time>2024-12-16T09:31:08Z</time>
      </trkpt>
      <trkpt lat="43.51147" lon="6.37485">
        <ele>290.9</ele>
        <time>2024-12-16T09:31:39Z</time>
      </trkpt>
      <trkpt lat="43.51156" lon="6.37482">
        <ele>290.1</ele>
        <time>2024-12-16T09:32:45Z</time>
      </trkpt>
      <trkpt lat="43.5116" lon="6.37471">
        <ele>289.5</ele>
        <time>2024-12-16T09:34:53Z</time>
      </trkpt>
      <trkpt lat="43.51165" lon="6.3746">
        <ele>289.8</ele>
        <time>2024-12-16T09:35:03Z</time>
      </trkpt>
      <trkpt lat="43.51162" lon="6.37472">
        <ele>289.8</ele>
        <time>2024-12-16T09:36:09Z</time>
      </trkpt>
      <trkpt lat="43.51155" lon="6.37481">
        <ele>289.9</ele>
        <time>2024-12-16T09:36:22Z</time>
      </trkpt>
      <trkpt lat="43.51146" lon="6.37485">
        <ele>290.7</ele>
        <time>2024-12-16T09:36:42Z</time>
      </trkpt>
      <trkpt lat="43.51137" lon="6.37486">
        <ele>291.5</ele>
        <time>2024-12-16T09:37:13Z</time>
      </trkpt>
      <trkpt lat="43.5113" lon="6.37476">
        <ele>292.7</ele>
        <time>2024-12-16T09:37:32Z</time>
      </trkpt>
      <trkpt lat="43.51124" lon="6.37467">
        <ele>293.2</ele>
        <time>2024-12-16T09:38:00Z</time>
      </trkpt>
      <trkpt lat="43.51116" lon="6.37458">
        <ele>293.9</ele>
        <time>2024-12-16T09:38:16Z</time>
      </trkpt>
      <trkpt lat="43.51109" lon="6.37449">
        <ele>294.9</ele>
        <time>2024-12-16T09:38:30Z</time>
      </trkpt>
      <trkpt lat="43.51102" lon="6.37443">
        <ele>295.3</ele>
        <time>2024-12-16T09:38:42Z</time>
      </trkpt>
      <trkpt lat="43.51093" lon="6.37437">
        <ele>295.4</ele>
        <time>2024-12-16T09:38:56Z</time>
      </trkpt>
      <trkpt lat="43.51083" lon="6.37436">
        <ele>295.2</ele>
        <time>2024-12-16T09:39:13Z</time>
      </trkpt>
      <trkpt lat="43.51075" lon="6.37431">
        <ele>294.4</ele>
        <time>2024-12-16T09:39:27Z</time>
      </trkpt>
      <trkpt lat="43.51066" lon="6.37428">
        <ele>293.6</ele>
        <time>2024-12-16T09:39:38Z</time>
      </trkpt>
      <trkpt lat="43.51059" lon="6.3742">
        <ele>292.9</ele>
        <time>2024-12-16T09:39:53Z</time>
      </trkpt>
      <trkpt lat="43.51051" lon="6.37411">
        <ele>293.3</ele>
        <time>2024-12-16T09:40:05Z</time>
      </trkpt>
      <trkpt lat="43.51047" lon="6.37398">
        <ele>293.1</ele>
        <time>2024-12-16T09:40:23Z</time>
      </trkpt>
      <trkpt lat="43.51043" lon="6.37386">
        <ele>293.2</ele>
        <time>2024-12-16T09:40:44Z</time>
      </trkpt>
      <trkpt lat="43.51039" lon="6.37375">
        <ele>293.1</ele>
        <time>2024-12-16T09:40:55Z</time>
      </trkpt>
      <trkpt lat="43.5103" lon="6.3737">
        <ele>294</ele>
        <time>2024-12-16T09:41:33Z</time>
      </trkpt>
      <trkpt lat="43.51029" lon="6.37357">
        <ele>293</ele>
        <time>2024-12-16T09:43:16Z</time>
      </trkpt>
      <trkpt lat="43.51033" lon="6.37345">
        <ele>293.7</ele>
        <time>2024-12-16T09:45:02Z</time>
      </trkpt>
      <trkpt lat="43.51024" lon="6.37345">
        <ele>293.4</ele>
        <time>2024-12-16T09:46:33Z</time>
      </trkpt>
      <trkpt lat="43.51016" lon="6.37337">
        <ele>292.2</ele>
        <time>2024-12-16T09:46:56Z</time>
      </trkpt>
      <trkpt lat="43.51011" lon="6.37326">
        <ele>292.8</ele>
        <time>2024-12-16T09:47:12Z</time>
      </trkpt>
      <trkpt lat="43.51004" lon="6.37319">
        <ele>292.3</ele>
        <time>2024-12-16T09:47:32Z</time>
      </trkpt>
      <trkpt lat="43.50995" lon="6.37313">
        <ele>291.7</ele>
        <time>2024-12-16T09:47:47Z</time>
      </trkpt>
      <trkpt lat="43.50988" lon="6.37304">
        <ele>291.7</ele>
        <time>2024-12-16T09:47:56Z</time>
      </trkpt>
      <trkpt lat="43.5098" lon="6.37299">
        <ele>291.9</ele>
        <time>2024-12-16T09:48:09Z</time>
      </trkpt>
      <trkpt lat="43.50972" lon="6.37292">
        <ele>291.6</ele>
        <time>2024-12-16T09:48:19Z</time>
      </trkpt>
      <trkpt lat="43.50963" lon="6.37289">
        <ele>291.2</ele>
        <time>2024-12-16T09:48:31Z</time>
      </trkpt>
      <trkpt lat="43.50954" lon="6.37286">
        <ele>291</ele>
        <time>2024-12-16T09:48:40Z</time>
      </trkpt>
      <trkpt lat="43.50944" lon="6.37282">
        <ele>290.8</ele>
        <time>2024-12-16T09:48:55Z</time>
      </trkpt>
      <trkpt lat="43.50936" lon="6.37278">
        <ele>290.8</ele>
        <time>2024-12-16T09:49:06Z</time>
      </trkpt>
      <trkpt lat="43.50926" lon="6.37277">
        <ele>291.4</ele>
        <time>2024-12-16T09:49:17Z</time>
      </trkpt>
      <trkpt lat="43.50918" lon="6.37271">
        <ele>292.1</ele>
        <time>2024-12-16T09:49:30Z</time>
      </trkpt>
      <trkpt lat="43.50908" lon="6.37268">
        <ele>292.6</ele>
        <time>2024-12-16T09:49:40Z</time>
      </trkpt>
      <trkpt lat="43.509" lon="6.37263">
        <ele>292.8</ele>
        <time>2024-12-16T09:49:51Z</time>
      </trkpt>
      <trkpt lat="43.50891" lon="6.37257">
        <ele>292.8</ele>
        <time>2024-12-16T09:50:08Z</time>
      </trkpt>
      <trkpt lat="43.50882" lon="6.37256">
        <ele>293.1</ele>
        <time>2024-12-16T09:50:18Z</time>
      </trkpt>
      <trkpt lat="43.50873" lon="6.37252">
        <ele>293.2</ele>
        <time>2024-12-16T09:50:33Z</time>
      </trkpt>
      <trkpt lat="43.50868" lon="6.37242">
        <ele>293.9</ele>
        <time>2024-12-16T09:50:42Z</time>
      </trkpt>
      <trkpt lat="43.50864" lon="6.3723">
        <ele>294.9</ele>
        <time>2024-12-16T09:50:55Z</time>
      </trkpt>
      <trkpt lat="43.50859" lon="6.37219">
        <ele>295.4</ele>
        <time>2024-12-16T09:51:31Z</time>
      </trkpt>
      <trkpt lat="43.50856" lon="6.37207">
        <ele>295.5</ele>
        <time>2024-12-16T09:52:07Z</time>
      </trkpt>
      <trkpt lat="43.50858" lon="6.37194">
        <ele>296.4</ele>
        <time>2024-12-16T09:53:52Z</time>
      </trkpt>
      <trkpt lat="43.50855" lon="6.37182">
        <ele>296.8</ele>
        <time>2024-12-16T09:54:29Z</time>
      </trkpt>
      <trkpt lat="43.50852" lon="6.3717">
        <ele>297.1</ele>
        <time>2024-12-16T09:54:42Z</time>
      </trkpt>
      <trkpt lat="43.50852" lon="6.37157">
        <ele>298</ele>
        <time>2024-12-16T09:55:40Z</time>
      </trkpt>
      <trkpt lat="43.50849" lon="6.37144">
        <ele>298.3</ele>
        <time>2024-12-16T09:55:55Z</time>
      </trkpt>
      <trkpt lat="43.50847" lon="6.37132">
        <ele>298.7</ele>
        <time>2024-12-16T09:56:06Z</time>
      </trkpt>
      <trkpt lat="43.50845" lon="6.3712">
        <ele>298.8</ele>
        <time>2024-12-16T09:56:16Z</time>
      </trkpt>
      <trkpt lat="43.50845" lon="6.37107">
        <ele>298.8</ele>
        <time>2024-12-16T09:58:34Z</time>
      </trkpt>
      <trkpt lat="43.50843" lon="6.37094">
        <ele>298.5</ele>
        <time>2024-12-16T09:59:51Z</time>
      </trkpt>
      <trkpt lat="43.5084" lon="6.37082">
        <ele>298.3</ele>
        <time>2024-12-16T10:00:06Z</time>
      </trkpt>
      <trkpt lat="43.50836" lon="6.3707">
        <ele>297.8</ele>
        <time>2024-12-16T10:00:20Z</time>
      </trkpt>
      <trkpt lat="43.50833" lon="6.37058">
        <ele>296.7</ele>
        <time>2024-12-16T10:00:51Z</time>
      </trkpt>
      <trkpt lat="43.50833" lon="6.37046">
        <ele>295.8</ele>
        <time>2024-12-16T10:01:02Z</time>
      </trkpt>
      <trkpt lat="43.50834" lon="6.37033">
        <ele>294.4</ele>
        <time>2024-12-16T10:01:13Z</time>
      </trkpt>
      <trkpt lat="43.50833" lon="6.3702">
        <ele>292.7</ele>
        <time>2024-12-16T10:01:51Z</time>
      </trkpt>
      <trkpt lat="43.50835" lon="6.37008">
        <ele>291.4</ele>
        <time>2024-12-16T10:02:06Z</time>
      </trkpt>
      <trkpt lat="43.50837" lon="6.36995">
        <ele>289.6</ele>
        <time>2024-12-16T10:02:28Z</time>
      </trkpt>
      <trkpt lat="43.50837" lon="6.36982">
        <ele>288.4</ele>
        <time>2024-12-16T10:02:39Z</time>
      </trkpt>
      <trkpt lat="43.50836" lon="6.36968">
        <ele>287.5</ele>
        <time>2024-12-16T10:02:45Z</time>
      </trkpt>
      <trkpt lat="43.50834" lon="6.36955">
        <ele>286.3</ele>
        <time>2024-12-16T10:02:54Z</time>
      </trkpt>
      <trkpt lat="43.50835" lon="6.36942">
        <ele>284.9</ele>
        <time>2024-12-16T10:04:11Z</time>
      </trkpt>
      <trkpt lat="43.50844" lon="6.3694">
        <ele>286.3</ele>
        <time>2024-12-16T10:04:44Z</time>
      </trkpt>
      <trkpt lat="43.50854" lon="6.3694">
        <ele>287.8</ele>
        <time>2024-12-16T10:04:59Z</time>
      </trkpt>
      <trkpt lat="43.50863" lon="6.3694">
        <ele>288.8</ele>
        <time>2024-12-16T10:05:13Z</time>
      </trkpt>
      <trkpt lat="43.50872" lon="6.3694">
        <ele>290</ele>
        <time>2024-12-16T10:05:32Z</time>
      </trkpt>
      <trkpt lat="43.50881" lon="6.36939">
        <ele>291.2</ele>
        <time>2024-12-16T10:05:49Z</time>
      </trkpt>
      <trkpt lat="43.5089" lon="6.36941">
        <ele>292.8</ele>
        <time>2024-12-16T10:06:04Z</time>
      </trkpt>
      <trkpt lat="43.50899" lon="6.36945">
        <ele>293.9</ele>
        <time>2024-12-16T10:06:20Z</time>
      </trkpt>
      <trkpt lat="43.50909" lon="6.36946">
        <ele>295.1</ele>
        <time>2024-12-16T10:06:30Z</time>
      </trkpt>
      <trkpt lat="43.50918" lon="6.36952">
        <ele>296.1</ele>
        <time>2024-12-16T10:07:09Z</time>
      </trkpt>
      <trkpt lat="43.50927" lon="6.36954">
        <ele>296.3</ele>
        <time>2024-12-16T10:07:23Z</time>
      </trkpt>
      <trkpt lat="43.50937" lon="6.36956">
        <ele>296.4</ele>
        <time>2024-12-16T10:07:51Z</time>
      </trkpt>
      <trkpt lat="43.50946" lon="6.36956">
        <ele>296.1</ele>
        <time>2024-12-16T10:08:04Z</time>
      </trkpt>
      <trkpt lat="43.50955" lon="6.36958">
        <ele>295.4</ele>
        <time>2024-12-16T10:08:19Z</time>
      </trkpt>
      <trkpt lat="43.50963" lon="6.36965">
        <ele>294.8</ele>
        <time>2024-12-16T10:08:35Z</time>
      </trkpt>
      <trkpt lat="43.50971" lon="6.36972">
        <ele>294.2</ele>
        <time>2024-12-16T10:09:44Z</time>
      </trkpt>
      <trkpt lat="43.50981" lon="6.36972">
        <ele>292.9</ele>
        <time>2024-12-16T10:10:01Z</time>
      </trkpt>
      <trkpt lat="43.50989" lon="6.36978">
        <ele>291.5</ele>
        <time>2024-12-16T10:10:17Z</time>
      </trkpt>
      <trkpt lat="43.50997" lon="6.36985">
        <ele>290.1</ele>
        <time>2024-12-16T10:10:34Z</time>
      </trkpt>
      <trkpt lat="43.51005" lon="6.36992">
        <ele>289</ele>
        <time>2024-12-16T10:10:47Z</time>
      </trkpt>
      <trkpt lat="43.51013" lon="6.36999">
        <ele>287.9</ele>
        <time>2024-12-16T10:10:56Z</time>
      </trkpt>
      <trkpt lat="43.51021" lon="6.37006">
        <ele>286.1</ele>
        <time>2024-12-16T10:11:22Z</time>
      </trkpt>
      <trkpt lat="43.51029" lon="6.37011">
        <ele>285.2</ele>
        <time>2024-12-16T10:11:34Z</time>
      </trkpt>
      <trkpt lat="43.51038" lon="6.37015">
        <ele>284.1</ele>
        <time>2024-12-16T10:12:01Z</time>
      </trkpt>
      <trkpt lat="43.51047" lon="6.37013">
        <ele>282</ele>
        <time>2024-12-16T10:12:21Z</time>
      </trkpt>
      <trkpt lat="43.51055" lon="6.37006">
        <ele>280.9</ele>
        <time>2024-12-16T10:12:35Z</time>
      </trkpt>
      <trkpt lat="43.51063" lon="6.37001">
        <ele>278.6</ele>
        <time>2024-12-16T10:12:54Z</time>
      </trkpt>
      <trkpt lat="43.51073" lon="6.37">
        <ele>277</ele>
        <time>2024-12-16T10:13:16Z</time>
      </trkpt>
      <trkpt lat="43.51082" lon="6.36999">
        <ele>275</ele>
        <time>2024-12-16T10:13:47Z</time>
      </trkpt>
      <trkpt lat="43.51091" lon="6.37002">
        <ele>274.1</ele>
        <time>2024-12-16T10:14:08Z</time>
      </trkpt>
      <trkpt lat="43.511" lon="6.37">
        <ele>272.7</ele>
        <time>2024-12-16T10:14:20Z</time>
      </trkpt>
      <trkpt lat="43.51109" lon="6.37005">
        <ele>271.5</ele>
        <time>2024-12-16T10:14:39Z</time>
      </trkpt>
      <trkpt lat="43.51118" lon="6.37003">
        <ele>268.8</ele>
        <time>2024-12-16T10:15:02Z</time>
      </trkpt>
      <trkpt lat="43.51127" lon="6.37005">
        <ele>267.4</ele>
        <time>2024-12-16T10:15:18Z</time>
      </trkpt>
      <trkpt lat="43.51137" lon="6.37006">
        <ele>265.8</ele>
        <time>2024-12-16T10:15:30Z</time>
      </trkpt>
      <trkpt lat="43.51139" lon="6.36994">
        <ele>265.1</ele>
        <time>2024-12-16T10:17:16Z</time>
      </trkpt>
      <trkpt lat="43.51138" lon="6.36982">
        <ele>264.1</ele>
        <time>2024-12-16T10:17:31Z</time>
      </trkpt>
      <trkpt lat="43.5114" lon="6.36969">
        <ele>264</ele>
        <time>2024-12-16T10:17:44Z</time>
      </trkpt>
      <trkpt lat="43.51141" lon="6.36956">
        <ele>264.2</ele>
        <time>2024-12-16T10:17:57Z</time>
      </trkpt>
      <trkpt lat="43.51143" lon="6.36944">
        <ele>264</ele>
        <time>2024-12-16T10:18:53Z</time>
      </trkpt>
      <trkpt lat="43.51147" lon="6.36933">
        <ele>264.1</ele>
        <time>2024-12-16T10:19:18Z</time>
      </trkpt>
      <trkpt lat="43.51152" lon="6.36922">
        <ele>264</ele>
        <time>2024-12-16T10:19:32Z</time>
      </trkpt>
      <trkpt lat="43.51156" lon="6.36911">
        <ele>263.9</ele>
        <time>2024-12-16T10:19:44Z</time>
      </trkpt>
      <trkpt lat="43.51162" lon="6.369">
        <ele>263.9</ele>
        <time>2024-12-16T10:19:55Z</time>
      </trkpt>
      <trkpt lat="43.51168" lon="6.36891">
        <ele>263.7</ele>
        <time>2024-12-16T10:20:05Z</time>
      </trkpt>
      <trkpt lat="43.51172" lon="6.36879">
        <ele>263.6</ele>
        <time>2024-12-16T10:20:15Z</time>
      </trkpt>
      <trkpt lat="43.51178" lon="6.36868">
        <ele>263.7</ele>
        <time>2024-12-16T10:20:26Z</time>
      </trkpt>
      <trkpt lat="43.51184" lon="6.36859">
        <ele>263.8</ele>
        <time>2024-12-16T10:20:39Z</time>
      </trkpt>
      <trkpt lat="43.5119" lon="6.36849">
        <ele>263.7</ele>
        <time>2024-12-16T10:20:51Z</time>
      </trkpt>
      <trkpt lat="43.51194" lon="6.36838">
        <ele>263.4</ele>
        <time>2024-12-16T10:21:11Z</time>
      </trkpt>
      <trkpt lat="43.51198" lon="6.36826">
        <ele>262.3</ele>
        <time>2024-12-16T10:21:23Z</time>
      </trkpt>
      <trkpt lat="43.51197" lon="6.36813">
        <ele>262.1</ele>
        <time>2024-12-16T10:21:34Z</time>
      </trkpt>
      <trkpt lat="43.51196" lon="6.368">
        <ele>261.3</ele>
        <time>2024-12-16T10:21:45Z</time>
      </trkpt>
      <trkpt lat="43.512" lon="6.36788">
        <ele>260.7</ele>
        <time>2024-12-16T10:22:06Z</time>
      </trkpt>
      <trkpt lat="43.51204" lon="6.36777">
        <ele>260.5</ele>
        <time>2024-12-16T10:22:14Z</time>
      </trkpt>
      <trkpt lat="43.51207" lon="6.36764">
        <ele>260.1</ele>
        <time>2024-12-16T10:22:22Z</time>
      </trkpt>
      <trkpt lat="43.51206" lon="6.3675">
        <ele>259.5</ele>
        <time>2024-12-16T10:22:32Z</time>
      </trkpt>
      <trkpt lat="43.51209" lon="6.36738">
        <ele>258.9</ele>
        <time>2024-12-16T10:22:42Z</time>
      </trkpt>
      <trkpt lat="43.5121" lon="6.36726">
        <ele>258.2</ele>
        <time>2024-12-16T10:22:52Z</time>
      </trkpt>
      <trkpt lat="43.51211" lon="6.36713">
        <ele>257.8</ele>
        <time>2024-12-16T10:23:01Z</time>
      </trkpt>
      <trkpt lat="43.51211" lon="6.367">
        <ele>256.8</ele>
        <time>2024-12-16T10:23:12Z</time>
      </trkpt>
      <trkpt lat="43.5121" lon="6.36687">
        <ele>256.2</ele>
        <time>2024-12-16T10:23:22Z</time>
      </trkpt>
      <trkpt lat="43.51207" lon="6.36675">
        <ele>256</ele>
        <time>2024-12-16T10:23:31Z</time>
      </trkpt>
      <trkpt lat="43.51206" lon="6.36661">
        <ele>255.8</ele>
        <time>2024-12-16T10:23:40Z</time>
      </trkpt>
      <trkpt lat="43.5121" lon="6.36649">
        <ele>255.6</ele>
        <time>2024-12-16T10:23:50Z</time>
      </trkpt>
      <trkpt lat="43.51214" lon="6.36637">
        <ele>255.7</ele>
        <time>2024-12-16T10:24:03Z</time>
      </trkpt>
      <trkpt lat="43.51215" lon="6.36625">
        <ele>255.2</ele>
        <time>2024-12-16T10:24:15Z</time>
      </trkpt>
      <trkpt lat="43.51221" lon="6.36614">
        <ele>254.8</ele>
        <time>2024-12-16T10:24:25Z</time>
      </trkpt>
      <trkpt lat="43.51225" lon="6.36602">
        <ele>254.1</ele>
        <time>2024-12-16T10:24:37Z</time>
      </trkpt>
      <trkpt lat="43.51229" lon="6.36591">
        <ele>253</ele>
        <time>2024-12-16T10:24:48Z</time>
      </trkpt>
      <trkpt lat="43.51234" lon="6.3658">
        <ele>253.1</ele>
        <time>2024-12-16T10:24:59Z</time>
      </trkpt>
      <trkpt lat="43.51242" lon="6.36572">
        <ele>252.7</ele>
        <time>2024-12-16T10:25:08Z</time>
      </trkpt>
      <trkpt lat="43.51249" lon="6.36564">
        <ele>252.7</ele>
        <time>2024-12-16T10:25:18Z</time>
      </trkpt>
      <trkpt lat="43.51249" lon="6.36551">
        <ele>252.1</ele>
        <time>2024-12-16T10:25:29Z</time>
      </trkpt>
      <trkpt lat="43.51254" lon="6.36541">
        <ele>251.3</ele>
        <time>2024-12-16T10:25:45Z</time>
      </trkpt>
      <trkpt lat="43.51256" lon="6.36528">
        <ele>251.3</ele>
        <time>2024-12-16T10:25:58Z</time>
      </trkpt>
      <trkpt lat="43.51256" lon="6.36516">
        <ele>252</ele>
        <time>2024-12-16T10:26:15Z</time>
      </trkpt>
      <trkpt lat="43.51254" lon="6.36503">
        <ele>252.8</ele>
        <time>2024-12-16T10:26:28Z</time>
      </trkpt>
      <trkpt lat="43.51253" lon="6.3649">
        <ele>254.5</ele>
        <time>2024-12-16T10:26:45Z</time>
      </trkpt>
      <trkpt lat="43.51246" lon="6.36481">
        <ele>256.5</ele>
        <time>2024-12-16T10:27:01Z</time>
      </trkpt>
      <trkpt lat="43.5124" lon="6.36471">
        <ele>257.5</ele>
        <time>2024-12-16T10:27:13Z</time>
      </trkpt>
      <trkpt lat="43.51233" lon="6.36463">
        <ele>257.8</ele>
        <time>2024-12-16T10:27:26Z</time>
      </trkpt>
      <trkpt lat="43.51227" lon="6.36453">
        <ele>258.5</ele>
        <time>2024-12-16T10:27:38Z</time>
      </trkpt>
      <trkpt lat="43.51225" lon="6.36441">
        <ele>258.5</ele>
        <time>2024-12-16T10:27:52Z</time>
      </trkpt>
      <trkpt lat="43.51223" lon="6.36428">
        <ele>259.2</ele>
        <time>2024-12-16T10:28:03Z</time>
      </trkpt>
      <trkpt lat="43.51222" lon="6.36416">
        <ele>259.9</ele>
        <time>2024-12-16T10:28:15Z</time>
      </trkpt>
      <trkpt lat="43.51222" lon="6.36403">
        <ele>260.8</ele>
        <time>2024-12-16T10:28:29Z</time>
      </trkpt>
      <trkpt lat="43.51222" lon="6.3639">
        <ele>260.6</ele>
        <time>2024-12-16T10:28:41Z</time>
      </trkpt>
      <trkpt lat="43.51221" lon="6.36377">
        <ele>261.8</ele>
        <time>2024-12-16T10:28:55Z</time>
      </trkpt>
      <trkpt lat="43.51221" lon="6.36365">
        <ele>262.5</ele>
        <time>2024-12-16T10:29:07Z</time>
      </trkpt>
      <trkpt lat="43.51227" lon="6.36355">
        <ele>263.4</ele>
        <time>2024-12-16T10:29:21Z</time>
      </trkpt>
      <trkpt lat="43.51229" lon="6.36342">
        <ele>263.1</ele>
        <time>2024-12-16T10:29:36Z</time>
      </trkpt>
      <trkpt lat="43.51235" lon="6.36331">
        <ele>263</ele>
        <time>2024-12-16T10:29:51Z</time>
      </trkpt>
      <trkpt lat="43.51241" lon="6.36321">
        <ele>262.8</ele>
        <time>2024-12-16T10:30:03Z</time>
      </trkpt>
      <trkpt lat="43.51246" lon="6.36311">
        <ele>263.1</ele>
        <time>2024-12-16T10:30:16Z</time>
      </trkpt>
      <trkpt lat="43.51251" lon="6.363">
        <ele>263.2</ele>
        <time>2024-12-16T10:30:29Z</time>
      </trkpt>
      <trkpt lat="43.51253" lon="6.36287">
        <ele>261.8</ele>
        <time>2024-12-16T10:30:45Z</time>
      </trkpt>
      <trkpt lat="43.51253" lon="6.36274">
        <ele>261</ele>
        <time>2024-12-16T10:30:59Z</time>
      </trkpt>
      <trkpt lat="43.51251" lon="6.36261">
        <ele>261</ele>
        <time>2024-12-16T10:31:13Z</time>
      </trkpt>
      <trkpt lat="43.51259" lon="6.36253">
        <ele>261.4</ele>
        <time>2024-12-16T10:31:26Z</time>
      </trkpt>
      <trkpt lat="43.51268" lon="6.36251">
        <ele>261.3</ele>
        <time>2024-12-16T10:31:38Z</time>
      </trkpt>
      <trkpt lat="43.51277" lon="6.36254">
        <ele>260.2</ele>
        <time>2024-12-16T10:31:56Z</time>
      </trkpt>
      <trkpt lat="43.51287" lon="6.36257">
        <ele>259.8</ele>
        <time>2024-12-16T10:32:06Z</time>
      </trkpt>
      <trkpt lat="43.51295" lon="6.36261">
        <ele>259.7</ele>
        <time>2024-12-16T10:32:22Z</time>
      </trkpt>
      <trkpt lat="43.51304" lon="6.3626">
        <ele>259.5</ele>
        <time>2024-12-16T10:32:42Z</time>
      </trkpt>
      <trkpt lat="43.51311" lon="6.36251">
        <ele>259.8</ele>
        <time>2024-12-16T10:33:29Z</time>
      </trkpt>
      <trkpt lat="43.51304" lon="6.36242">
        <ele>259.7</ele>
        <time>2024-12-16T10:33:55Z</time>
      </trkpt>
      <trkpt lat="43.51304" lon="6.3623">
        <ele>259.7</ele>
        <time>2024-12-16T10:34:07Z</time>
      </trkpt>
      <trkpt lat="43.51304" lon="6.36217">
        <ele>259.5</ele>
        <time>2024-12-16T10:34:26Z</time>
      </trkpt>
      <trkpt lat="43.51304" lon="6.36203">
        <ele>259.5</ele>
        <time>2024-12-16T10:34:38Z</time>
      </trkpt>
      <trkpt lat="43.51304" lon="6.36191">
        <ele>260.1</ele>
        <time>2024-12-16T10:34:50Z</time>
      </trkpt>
      <trkpt lat="43.513" lon="6.36179">
        <ele>260.4</ele>
        <time>2024-12-16T10:35:11Z</time>
      </trkpt>
      <trkpt lat="43.51302" lon="6.36167">
        <ele>260.8</ele>
        <time>2024-12-16T10:36:28Z</time>
      </trkpt>
      <trkpt lat="43.51299" lon="6.36155">
        <ele>260.6</ele>
        <time>2024-12-16T10:36:39Z</time>
      </trkpt>
      <trkpt lat="43.51296" lon="6.36143">
        <ele>261</ele>
        <time>2024-12-16T10:36:50Z</time>
      </trkpt>
      <trkpt lat="43.51294" lon="6.3613">
        <ele>261.8</ele>
        <time>2024-12-16T10:37:03Z</time>
      </trkpt>
      <trkpt lat="43.51292" lon="6.36118">
        <ele>261.9</ele>
        <time>2024-12-16T10:37:16Z</time>
      </trkpt>
      <trkpt lat="43.51293" lon="6.36105">
        <ele>262.2</ele>
        <time>2024-12-16T10:37:28Z</time>
      </trkpt>
      <trkpt lat="43.51295" lon="6.36092">
        <ele>263.1</ele>
        <time>2024-12-16T10:37:54Z</time>
      </trkpt>
      <trkpt lat="43.51295" lon="6.36078">
        <ele>264.5</ele>
        <time>2024-12-16T10:38:20Z</time>
      </trkpt>
      <trkpt lat="43.51293" lon="6.36065">
        <ele>265</ele>
        <time>2024-12-16T10:38:31Z</time>
      </trkpt>
      <trkpt lat="43.5129" lon="6.36053">
        <ele>265.1</ele>
        <time>2024-12-16T10:38:43Z</time>
      </trkpt>
      <trkpt lat="43.51287" lon="6.36041">
        <ele>265.1</ele>
        <time>2024-12-16T10:38:56Z</time>
      </trkpt>
      <trkpt lat="43.51283" lon="6.36029">
        <ele>264.9</ele>
        <time>2024-12-16T10:39:06Z</time>
      </trkpt>
      <trkpt lat="43.51279" lon="6.36018">
        <ele>264.9</ele>
        <time>2024-12-16T10:39:15Z</time>
      </trkpt>
      <trkpt lat="43.51279" lon="6.36006">
        <ele>265.5</ele>
        <time>2024-12-16T10:39:28Z</time>
      </trkpt>
      <trkpt lat="43.51279" lon="6.35993">
        <ele>266</ele>
        <time>2024-12-16T10:39:45Z</time>
      </trkpt>
      <trkpt lat="43.51282" lon="6.35981">
        <ele>267.5</ele>
        <time>2024-12-16T10:40:01Z</time>
      </trkpt>
      <trkpt lat="43.51283" lon="6.35968">
        <ele>268.9</ele>
        <time>2024-12-16T10:40:29Z</time>
      </trkpt>
      <trkpt lat="43.51283" lon="6.35955">
        <ele>269</ele>
        <time>2024-12-16T10:40:50Z</time>
      </trkpt>
      <trkpt lat="43.51284" lon="6.35942">
        <ele>270.5</ele>
        <time>2024-12-16T10:41:07Z</time>
      </trkpt>
      <trkpt lat="43.51287" lon="6.3593">
        <ele>271.6</ele>
        <time>2024-12-16T10:41:24Z</time>
      </trkpt>
      <trkpt lat="43.51291" lon="6.35918">
        <ele>274</ele>
        <time>2024-12-16T10:41:55Z</time>
      </trkpt>
      <trkpt lat="43.51297" lon="6.35909">
        <ele>275.7</ele>
        <time>2024-12-16T10:42:20Z</time>
      </trkpt>
      <trkpt lat="43.51306" lon="6.3591">
        <ele>278.2</ele>
        <time>2024-12-16T10:43:09Z</time>
      </trkpt>
      <trkpt lat="43.51312" lon="6.359">
        <ele>282.3</ele>
        <time>2024-12-16T10:43:56Z</time>
      </trkpt>
      <trkpt lat="43.51311" lon="6.35887">
        <ele>283.9</ele>
        <time>2024-12-16T10:44:22Z</time>
      </trkpt>
      <trkpt lat="43.5131" lon="6.359">
        <ele>282.6</ele>
        <time>2024-12-16T10:45:59Z</time>
      </trkpt>
      <trkpt lat="43.51306" lon="6.35911">
        <ele>280.6</ele>
        <time>2024-12-16T10:46:18Z</time>
      </trkpt>
      <trkpt lat="43.51298" lon="6.35918">
        <ele>276.7</ele>
        <time>2024-12-16T10:48:38Z</time>
      </trkpt>
      <trkpt lat="43.5129" lon="6.35924">
        <ele>274.9</ele>
        <time>2024-12-16T10:49:03Z</time>
      </trkpt>
      <trkpt lat="43.51286" lon="6.35936">
        <ele>273.4</ele>
        <time>2024-12-16T10:49:15Z</time>
      </trkpt>
      <trkpt lat="43.51284" lon="6.3595">
        <ele>271.8</ele>
        <time>2024-12-16T10:49:31Z</time>
      </trkpt>
      <trkpt lat="43.51283" lon="6.35963">
        <ele>270.7</ele>
        <time>2024-12-16T10:49:49Z</time>
      </trkpt>
      <trkpt lat="43.51283" lon="6.35976">
        <ele>270.4</ele>
        <time>2024-12-16T10:50:01Z</time>
      </trkpt>
      <trkpt lat="43.5128" lon="6.35987">
        <ele>269.3</ele>
        <time>2024-12-16T10:50:15Z</time>
      </trkpt>
      <trkpt lat="43.51273" lon="6.35996">
        <ele>267.2</ele>
        <time>2024-12-16T10:50:36Z</time>
      </trkpt>
      <trkpt lat="43.51278" lon="6.36007">
        <ele>267</ele>
        <time>2024-12-16T10:51:01Z</time>
      </trkpt>
      <trkpt lat="43.51282" lon="6.3602">
        <ele>266.5</ele>
        <time>2024-12-16T10:51:11Z</time>
      </trkpt>
      <trkpt lat="43.51286" lon="6.36033">
        <ele>266.3</ele>
        <time>2024-12-16T10:51:20Z</time>
      </trkpt>
      <trkpt lat="43.5129" lon="6.36045">
        <ele>266.2</ele>
        <time>2024-12-16T10:51:28Z</time>
      </trkpt>
      <trkpt lat="43.51291" lon="6.36058">
        <ele>266.2</ele>
        <time>2024-12-16T10:51:34Z</time>
      </trkpt>
      <trkpt lat="43.51293" lon="6.3607">
        <ele>266.1</ele>
        <time>2024-12-16T10:51:46Z</time>
      </trkpt>
      <trkpt lat="43.51292" lon="6.36083">
        <ele>266.3</ele>
        <time>2024-12-16T10:52:08Z</time>
      </trkpt>
      <trkpt lat="43.51285" lon="6.36075">
        <ele>265.6</ele>
        <time>2024-12-16T10:52:45Z</time>
      </trkpt>
      <trkpt lat="43.51278" lon="6.36085">
        <ele>266.5</ele>
        <time>2024-12-16T10:53:12Z</time>
      </trkpt>
      <trkpt lat="43.51276" lon="6.36072">
        <ele>266.3</ele>
        <time>2024-12-16T10:54:58Z</time>
      </trkpt>
      <trkpt lat="43.51272" lon="6.36059">
        <ele>267</ele>
        <time>2024-12-16T10:55:11Z</time>
      </trkpt>
      <trkpt lat="43.51268" lon="6.36049">
        <ele>266.7</ele>
        <time>2024-12-16T10:55:19Z</time>
      </trkpt>
      <trkpt lat="43.51258" lon="6.36048">
        <ele>271.3</ele>
        <time>2024-12-16T10:55:43Z</time>
      </trkpt>
      <trkpt lat="43.51252" lon="6.36039">
        <ele>273.8</ele>
        <time>2024-12-16T10:56:06Z</time>
      </trkpt>
      <trkpt lat="43.51255" lon="6.36026">
        <ele>274.9</ele>
        <time>2024-12-16T10:56:25Z</time>
      </trkpt>
      <trkpt lat="43.51253" lon="6.36013">
        <ele>275.8</ele>
        <time>2024-12-16T10:56:52Z</time>
      </trkpt>
      <trkpt lat="43.5125" lon="6.36002">
        <ele>278</ele>
        <time>2024-12-16T10:57:06Z</time>
      </trkpt>
      <trkpt lat="43.51255" lon="6.35991">
        <ele>278.9</ele>
        <time>2024-12-16T10:57:20Z</time>
      </trkpt>
      <trkpt lat="43.51253" lon="6.35978">
        <ele>279.5</ele>
        <time>2024-12-16T10:57:32Z</time>
      </trkpt>
      <trkpt lat="43.51255" lon="6.35966">
        <ele>280.1</ele>
        <time>2024-12-16T10:57:42Z</time>
      </trkpt>
      <trkpt lat="43.51255" lon="6.35953">
        <ele>281.3</ele>
        <time>2024-12-16T10:57:56Z</time>
      </trkpt>
      <trkpt lat="43.51252" lon="6.35941">
        <ele>282.3</ele>
        <time>2024-12-16T10:58:05Z</time>
      </trkpt>
      <trkpt lat="43.51252" lon="6.35928">
        <ele>284</ele>
        <time>2024-12-16T10:58:18Z</time>
      </trkpt>
      <trkpt lat="43.51257" lon="6.35917">
        <ele>284.8</ele>
        <time>2024-12-16T10:58:39Z</time>
      </trkpt>
      <trkpt lat="43.5126" lon="6.35905">
        <ele>282.9</ele>
        <time>2024-12-16T10:58:56Z</time>
      </trkpt>
      <trkpt lat="43.51265" lon="6.35894">
        <ele>282.3</ele>
        <time>2024-12-16T10:59:05Z</time>
      </trkpt>
      <trkpt lat="43.51257" lon="6.35901">
        <ele>282.5</ele>
        <time>2024-12-16T11:00:03Z</time>
      </trkpt>
      <trkpt lat="43.51254" lon="6.35913">
        <ele>284.1</ele>
        <time>2024-12-16T11:00:14Z</time>
      </trkpt>
      <trkpt lat="43.51254" lon="6.35901">
        <ele>288.5</ele>
        <time>2024-12-16T11:00:56Z</time>
      </trkpt>
      <trkpt lat="43.51251" lon="6.35888">
        <ele>289.7</ele>
        <time>2024-12-16T11:01:09Z</time>
      </trkpt>
      <trkpt lat="43.51247" lon="6.35876">
        <ele>291.5</ele>
        <time>2024-12-16T11:01:21Z</time>
      </trkpt>
      <trkpt lat="43.51252" lon="6.35864">
        <ele>292.5</ele>
        <time>2024-12-16T11:01:43Z</time>
      </trkpt>
      <trkpt lat="43.51251" lon="6.35852">
        <ele>292.9</ele>
        <time>2024-12-16T11:01:54Z</time>
      </trkpt>
      <trkpt lat="43.5125" lon="6.35839">
        <ele>293.8</ele>
        <time>2024-12-16T11:02:04Z</time>
      </trkpt>
      <trkpt lat="43.5125" lon="6.35826">
        <ele>294.4</ele>
        <time>2024-12-16T11:02:19Z</time>
      </trkpt>
      <trkpt lat="43.51243" lon="6.35817">
        <ele>294.7</ele>
        <time>2024-12-16T11:02:34Z</time>
      </trkpt>
      <trkpt lat="43.51237" lon="6.35807">
        <ele>295.5</ele>
        <time>2024-12-16T11:02:44Z</time>
      </trkpt>
      <trkpt lat="43.5123" lon="6.35798">
        <ele>295.6</ele>
        <time>2024-12-16T11:02:52Z</time>
      </trkpt>
      <trkpt lat="43.51221" lon="6.35794">
        <ele>296</ele>
        <time>2024-12-16T11:02:59Z</time>
      </trkpt>
      <trkpt lat="43.51212" lon="6.35792">
        <ele>296.9</ele>
        <time>2024-12-16T11:03:10Z</time>
      </trkpt>
      <trkpt lat="43.51203" lon="6.35798">
        <ele>297.9</ele>
        <time>2024-12-16T11:03:26Z</time>
      </trkpt>
      <trkpt lat="43.51195" lon="6.35805">
        <ele>298.4</ele>
        <time>2024-12-16T11:03:39Z</time>
      </trkpt>
      <trkpt lat="43.51187" lon="6.35811">
        <ele>299.7</ele>
        <time>2024-12-16T11:03:50Z</time>
      </trkpt>
      <trkpt lat="43.51179" lon="6.35817">
        <ele>300.4</ele>
        <time>2024-12-16T11:04:02Z</time>
      </trkpt>
      <trkpt lat="43.5118" lon="6.35829">
        <ele>302.8</ele>
        <time>2024-12-16T11:04:16Z</time>
      </trkpt>
      <trkpt lat="43.51171" lon="6.3583">
        <ele>303.8</ele>
        <time>2024-12-16T11:04:48Z</time>
      </trkpt>
      <trkpt lat="43.5118" lon="6.35836">
        <ele>305.5</ele>
        <time>2024-12-16T11:06:17Z</time>
      </trkpt>
      <trkpt lat="43.51183" lon="6.35849">
        <ele>306.3</ele>
        <time>2024-12-16T11:06:48Z</time>
      </trkpt>
      <trkpt lat="43.51182" lon="6.35861">
        <ele>307.2</ele>
        <time>2024-12-16T11:07:06Z</time>
      </trkpt>
      <trkpt lat="43.51188" lon="6.35872">
        <ele>308.3</ele>
        <time>2024-12-16T11:07:16Z</time>
      </trkpt>
      <trkpt lat="43.51179" lon="6.35874">
        <ele>308.3</ele>
        <time>2024-12-16T11:07:29Z</time>
      </trkpt>
      <trkpt lat="43.51171" lon="6.3588">
        <ele>308.2</ele>
        <time>2024-12-16T11:07:40Z</time>
      </trkpt>
      <trkpt lat="43.51162" lon="6.35875">
        <ele>308.8</ele>
        <time>2024-12-16T11:07:51Z</time>
      </trkpt>
      <trkpt lat="43.51162" lon="6.3586">
        <ele>310</ele>
        <time>2024-12-16T12:04:47Z</time>
      </trkpt>
      <trkpt lat="43.51158" lon="6.35871">
        <ele>314.1</ele>
        <time>2024-12-16T12:05:59Z</time>
      </trkpt>
      <trkpt lat="43.51149" lon="6.3587">
        <ele>314.6</ele>
        <time>2024-12-16T12:07:07Z</time>
      </trkpt>
      <trkpt lat="43.51144" lon="6.3586">
        <ele>314.7</ele>
        <time>2024-12-16T12:07:40Z</time>
      </trkpt>
      <trkpt lat="43.51135" lon="6.35856">
        <ele>314.6</ele>
        <time>2024-12-16T12:08:19Z</time>
      </trkpt>
      <trkpt lat="43.51126" lon="6.35856">
        <ele>315.5</ele>
        <time>2024-12-16T12:08:30Z</time>
      </trkpt>
      <trkpt lat="43.51117" lon="6.3586">
        <ele>316.6</ele>
        <time>2024-12-16T12:09:08Z</time>
      </trkpt>
      <trkpt lat="43.51108" lon="6.35861">
        <ele>317.2</ele>
        <time>2024-12-16T12:09:20Z</time>
      </trkpt>
      <trkpt lat="43.51098" lon="6.35861">
        <ele>318.2</ele>
        <time>2024-12-16T12:09:38Z</time>
      </trkpt>
      <trkpt lat="43.51089" lon="6.35861">
        <ele>318.9</ele>
        <time>2024-12-16T12:09:49Z</time>
      </trkpt>
      <trkpt lat="43.5108" lon="6.35864">
        <ele>319.8</ele>
        <time>2024-12-16T12:10:02Z</time>
      </trkpt>
      <trkpt lat="43.5107" lon="6.35865">
        <ele>320.9</ele>
        <time>2024-12-16T12:10:13Z</time>
      </trkpt>
      <trkpt lat="43.5106" lon="6.35868">
        <ele>321.9</ele>
        <time>2024-12-16T12:10:25Z</time>
      </trkpt>
      <trkpt lat="43.51051" lon="6.3587">
        <ele>322</ele>
        <time>2024-12-16T12:10:36Z</time>
      </trkpt>
      <trkpt lat="43.51042" lon="6.35873">
        <ele>323.3</ele>
        <time>2024-12-16T12:10:47Z</time>
      </trkpt>
      <trkpt lat="43.51033" lon="6.35876">
        <ele>324.1</ele>
        <time>2024-12-16T12:10:57Z</time>
      </trkpt>
      <trkpt lat="43.51024" lon="6.35873">
        <ele>324.7</ele>
        <time>2024-12-16T12:11:07Z</time>
      </trkpt>
      <trkpt lat="43.51014" lon="6.35874">
        <ele>325.3</ele>
        <time>2024-12-16T12:11:17Z</time>
      </trkpt>
      <trkpt lat="43.51005" lon="6.35871">
        <ele>325.6</ele>
        <time>2024-12-16T12:11:29Z</time>
      </trkpt>
      <trkpt lat="43.50996" lon="6.35868">
        <ele>325.6</ele>
        <time>2024-12-16T12:12:08Z</time>
      </trkpt>
      <trkpt lat="43.50986" lon="6.35867">
        <ele>325.7</ele>
        <time>2024-12-16T12:12:20Z</time>
      </trkpt>
      <trkpt lat="43.50977" lon="6.35867">
        <ele>325.7</ele>
        <time>2024-12-16T12:12:30Z</time>
      </trkpt>
      <trkpt lat="43.50967" lon="6.35867">
        <ele>325.6</ele>
        <time>2024-12-16T12:12:45Z</time>
      </trkpt>
      <trkpt lat="43.50958" lon="6.35864">
        <ele>325.7</ele>
        <time>2024-12-16T12:13:14Z</time>
      </trkpt>
      <trkpt lat="43.50949" lon="6.35862">
        <ele>325</ele>
        <time>2024-12-16T12:13:25Z</time>
      </trkpt>
      <trkpt lat="43.5094" lon="6.35858">
        <ele>324.6</ele>
        <time>2024-12-16T12:13:33Z</time>
      </trkpt>
      <trkpt lat="43.50931" lon="6.35853">
        <ele>324</ele>
        <time>2024-12-16T12:13:41Z</time>
      </trkpt>
      <trkpt lat="43.50924" lon="6.35846">
        <ele>322.8</ele>
        <time>2024-12-16T12:14:03Z</time>
      </trkpt>
      <trkpt lat="43.50915" lon="6.35843">
        <ele>322.1</ele>
        <time>2024-12-16T12:14:13Z</time>
      </trkpt>
      <trkpt lat="43.50906" lon="6.35838">
        <ele>320.8</ele>
        <time>2024-12-16T12:14:26Z</time>
      </trkpt>
      <trkpt lat="43.50896" lon="6.35834">
        <ele>320.1</ele>
        <time>2024-12-16T12:14:38Z</time>
      </trkpt>
      <trkpt lat="43.50887" lon="6.35832">
        <ele>319.3</ele>
        <time>2024-12-16T12:15:04Z</time>
      </trkpt>
      <trkpt lat="43.50879" lon="6.35828">
        <ele>318.4</ele>
        <time>2024-12-16T12:15:15Z</time>
      </trkpt>
      <trkpt lat="43.5087" lon="6.35824">
        <ele>317.3</ele>
        <time>2024-12-16T12:15:28Z</time>
      </trkpt>
      <trkpt lat="43.50861" lon="6.3582">
        <ele>316.3</ele>
        <time>2024-12-16T12:15:39Z</time>
      </trkpt>
      <trkpt lat="43.50852" lon="6.35817">
        <ele>315.3</ele>
        <time>2024-12-16T12:15:51Z</time>
      </trkpt>
      <trkpt lat="43.50843" lon="6.35812">
        <ele>314.1</ele>
        <time>2024-12-16T12:16:02Z</time>
      </trkpt>
      <trkpt lat="43.50834" lon="6.35809">
        <ele>313.1</ele>
        <time>2024-12-16T12:16:13Z</time>
      </trkpt>
      <trkpt lat="43.50825" lon="6.35805">
        <ele>311.9</ele>
        <time>2024-12-16T12:16:24Z</time>
      </trkpt>
      <trkpt lat="43.50816" lon="6.35803">
        <ele>310.9</ele>
        <time>2024-12-16T12:16:34Z</time>
      </trkpt>
      <trkpt lat="43.50806" lon="6.35801">
        <ele>310.5</ele>
        <time>2024-12-16T12:16:46Z</time>
      </trkpt>
      <trkpt lat="43.50797" lon="6.35803">
        <ele>310.1</ele>
        <time>2024-12-16T12:16:55Z</time>
      </trkpt>
      <trkpt lat="43.50788" lon="6.35805">
        <ele>309.8</ele>
        <time>2024-12-16T12:17:04Z</time>
      </trkpt>
      <trkpt lat="43.50778" lon="6.35808">
        <ele>309.6</ele>
        <time>2024-12-16T12:17:14Z</time>
      </trkpt>
      <trkpt lat="43.50769" lon="6.35811">
        <ele>309.2</ele>
        <time>2024-12-16T12:17:24Z</time>
      </trkpt>
      <trkpt lat="43.50759" lon="6.35813">
        <ele>308.7</ele>
        <time>2024-12-16T12:17:34Z</time>
      </trkpt>
      <trkpt lat="43.50749" lon="6.35813">
        <ele>308.3</ele>
        <time>2024-12-16T12:17:45Z</time>
      </trkpt>
      <trkpt lat="43.5074" lon="6.35816">
        <ele>307.9</ele>
        <time>2024-12-16T12:17:54Z</time>
      </trkpt>
      <trkpt lat="43.50731" lon="6.35819">
        <ele>307.8</ele>
        <time>2024-12-16T12:18:05Z</time>
      </trkpt>
      <trkpt lat="43.50721" lon="6.35819">
        <ele>307.8</ele>
        <time>2024-12-16T12:18:13Z</time>
      </trkpt>
      <trkpt lat="43.50712" lon="6.35822">
        <ele>307.6</ele>
        <time>2024-12-16T12:18:22Z</time>
      </trkpt>
      <trkpt lat="43.50703" lon="6.35827">
        <ele>307.5</ele>
        <time>2024-12-16T12:18:31Z</time>
      </trkpt>
      <trkpt lat="43.50694" lon="6.3583">
        <ele>307.4</ele>
        <time>2024-12-16T12:18:40Z</time>
      </trkpt>
      <trkpt lat="43.50684" lon="6.35833">
        <ele>307.7</ele>
        <time>2024-12-16T12:18:49Z</time>
      </trkpt>
      <trkpt lat="43.50675" lon="6.35838">
        <ele>308</ele>
        <time>2024-12-16T12:18:58Z</time>
      </trkpt>
      <trkpt lat="43.50666" lon="6.35842">
        <ele>308.1</ele>
        <time>2024-12-16T12:19:07Z</time>
      </trkpt>
      <trkpt lat="43.5066" lon="6.35851">
        <ele>308.2</ele>
        <time>2024-12-16T12:19:17Z</time>
      </trkpt>
      <trkpt lat="43.50664" lon="6.35863">
        <ele>307.9</ele>
        <time>2024-12-16T12:19:33Z</time>
      </trkpt>
      <trkpt lat="43.50669" lon="6.35874">
        <ele>306.9</ele>
        <time>2024-12-16T12:19:44Z</time>
      </trkpt>
      <trkpt lat="43.50674" lon="6.35886">
        <ele>305.2</ele>
        <time>2024-12-16T12:19:57Z</time>
      </trkpt>
      <trkpt lat="43.50679" lon="6.35897">
        <ele>303.7</ele>
        <time>2024-12-16T12:20:09Z</time>
      </trkpt>
      <trkpt lat="43.50684" lon="6.35909">
        <ele>301.8</ele>
        <time>2024-12-16T12:20:22Z</time>
      </trkpt>
      <trkpt lat="43.50677" lon="6.35918">
        <ele>300.7</ele>
        <time>2024-12-16T12:20:55Z</time>
      </trkpt>
      <trkpt lat="43.50671" lon="6.35927">
        <ele>299.1</ele>
        <time>2024-12-16T12:21:09Z</time>
      </trkpt>
      <trkpt lat="43.50664" lon="6.35936">
        <ele>297.4</ele>
        <time>2024-12-16T12:21:31Z</time>
      </trkpt>
      <trkpt lat="43.50657" lon="6.35944">
        <ele>296.4</ele>
        <time>2024-12-16T12:21:44Z</time>
      </trkpt>
      <trkpt lat="43.50649" lon="6.35952">
        <ele>295.5</ele>
        <time>2024-12-16T12:21:54Z</time>
      </trkpt>
      <trkpt lat="43.50641" lon="6.35959">
        <ele>294.5</ele>
        <time>2024-12-16T12:22:07Z</time>
      </trkpt>
      <trkpt lat="43.50633" lon="6.35965">
        <ele>293.7</ele>
        <time>2024-12-16T12:22:18Z</time>
      </trkpt>
      <trkpt lat="43.50625" lon="6.35972">
        <ele>293.3</ele>
        <time>2024-12-16T12:22:28Z</time>
      </trkpt>
      <trkpt lat="43.50617" lon="6.35978">
        <ele>292.8</ele>
        <time>2024-12-16T12:22:43Z</time>
      </trkpt>
      <trkpt lat="43.5061" lon="6.35986">
        <ele>290.8</ele>
        <time>2024-12-16T12:22:56Z</time>
      </trkpt>
      <trkpt lat="43.50603" lon="6.35995">
        <ele>288.8</ele>
        <time>2024-12-16T12:23:09Z</time>
      </trkpt>
      <trkpt lat="43.506" lon="6.36007">
        <ele>287.4</ele>
        <time>2024-12-16T12:23:29Z</time>
      </trkpt>
      <trkpt lat="43.50598" lon="6.36019">
        <ele>286.1</ele>
        <time>2024-12-16T12:23:49Z</time>
      </trkpt>
      <trkpt lat="43.50592" lon="6.36028">
        <ele>284.9</ele>
        <time>2024-12-16T12:24:09Z</time>
      </trkpt>
      <trkpt lat="43.50587" lon="6.36039">
        <ele>284.3</ele>
        <time>2024-12-16T12:24:21Z</time>
      </trkpt>
      <trkpt lat="43.50582" lon="6.3605">
        <ele>284.2</ele>
        <time>2024-12-16T12:24:32Z</time>
      </trkpt>
      <trkpt lat="43.50576" lon="6.36059">
        <ele>283.6</ele>
        <time>2024-12-16T12:25:18Z</time>
      </trkpt>
      <trkpt lat="43.50569" lon="6.36068">
        <ele>282.7</ele>
        <time>2024-12-16T12:25:32Z</time>
      </trkpt>
      <trkpt lat="43.50563" lon="6.36078">
        <ele>282</ele>
        <time>2024-12-16T12:25:53Z</time>
      </trkpt>
      <trkpt lat="43.50557" lon="6.36086">
        <ele>281.4</ele>
        <time>2024-12-16T12:26:01Z</time>
      </trkpt>
      <trkpt lat="43.5055" lon="6.36095">
        <ele>281.4</ele>
        <time>2024-12-16T12:26:11Z</time>
      </trkpt>
      <trkpt lat="43.50542" lon="6.36103">
        <ele>281</ele>
        <time>2024-12-16T12:26:20Z</time>
      </trkpt>
      <trkpt lat="43.50535" lon="6.36112">
        <ele>280.4</ele>
        <time>2024-12-16T12:26:29Z</time>
      </trkpt>
      <trkpt lat="43.50527" lon="6.36119">
        <ele>279.7</ele>
        <time>2024-12-16T12:26:47Z</time>
      </trkpt>
      <trkpt lat="43.5052" lon="6.36128">
        <ele>279.6</ele>
        <time>2024-12-16T12:26:55Z</time>
      </trkpt>
      <trkpt lat="43.50513" lon="6.36137">
        <ele>279.2</ele>
        <time>2024-12-16T12:27:03Z</time>
      </trkpt>
      <trkpt lat="43.50507" lon="6.36146">
        <ele>278.9</ele>
        <time>2024-12-16T12:27:14Z</time>
      </trkpt>
      <trkpt lat="43.50502" lon="6.36157">
        <ele>278.4</ele>
        <time>2024-12-16T12:27:26Z</time>
      </trkpt>
      <trkpt lat="43.50499" lon="6.36168">
        <ele>278.3</ele>
        <time>2024-12-16T12:28:01Z</time>
      </trkpt>
      <trkpt lat="43.50491" lon="6.36177">
        <ele>277.2</ele>
        <time>2024-12-16T12:28:20Z</time>
      </trkpt>
      <trkpt lat="43.50486" lon="6.36188">
        <ele>276.7</ele>
        <time>2024-12-16T12:28:30Z</time>
      </trkpt>
      <trkpt lat="43.50481" lon="6.362">
        <ele>276.3</ele>
        <time>2024-12-16T12:28:42Z</time>
      </trkpt>
      <trkpt lat="43.50477" lon="6.36212">
        <ele>276.1</ele>
        <time>2024-12-16T12:28:52Z</time>
      </trkpt>
      <trkpt lat="43.50473" lon="6.36223">
        <ele>276</ele>
        <time>2024-12-16T12:29:02Z</time>
      </trkpt>
      <trkpt lat="43.50467" lon="6.36233">
        <ele>275.4</ele>
        <time>2024-12-16T12:29:35Z</time>
      </trkpt>
      <trkpt lat="43.50463" lon="6.36245">
        <ele>275</ele>
        <time>2024-12-16T12:29:45Z</time>
      </trkpt>
      <trkpt lat="43.50459" lon="6.36256">
        <ele>274.4</ele>
        <time>2024-12-16T12:29:53Z</time>
      </trkpt>
      <trkpt lat="43.50453" lon="6.36268">
        <ele>273.9</ele>
        <time>2024-12-16T12:30:02Z</time>
      </trkpt>
      <trkpt lat="43.5045" lon="6.36279">
        <ele>273.8</ele>
        <time>2024-12-16T12:30:16Z</time>
      </trkpt>
      <trkpt lat="43.50443" lon="6.36287">
        <ele>273.4</ele>
        <time>2024-12-16T12:30:28Z</time>
      </trkpt>
      <trkpt lat="43.50434" lon="6.36289">
        <ele>272.8</ele>
        <time>2024-12-16T12:30:40Z</time>
      </trkpt>
      <trkpt lat="43.50425" lon="6.36293">
        <ele>272.6</ele>
        <time>2024-12-16T12:30:50Z</time>
      </trkpt>
      <trkpt lat="43.50416" lon="6.36297">
        <ele>272</ele>
        <time>2024-12-16T12:30:59Z</time>
      </trkpt>
      <trkpt lat="43.50407" lon="6.36301">
        <ele>271.5</ele>
        <time>2024-12-16T12:31:10Z</time>
      </trkpt>
      <trkpt lat="43.50398" lon="6.36307">
        <ele>271.4</ele>
        <time>2024-12-16T12:31:20Z</time>
      </trkpt>
      <trkpt lat="43.50389" lon="6.36312">
        <ele>271.4</ele>
        <time>2024-12-16T12:31:30Z</time>
      </trkpt>
      <trkpt lat="43.50383" lon="6.36322">
        <ele>271</ele>
        <time>2024-12-16T12:31:42Z</time>
      </trkpt>
      <trkpt lat="43.50378" lon="6.36335">
        <ele>270.3</ele>
        <time>2024-12-16T12:31:53Z</time>
      </trkpt>
      <trkpt lat="43.50374" lon="6.36347">
        <ele>269.8</ele>
        <time>2024-12-16T12:32:03Z</time>
      </trkpt>
      <trkpt lat="43.50372" lon="6.36359">
        <ele>269.7</ele>
        <time>2024-12-16T12:32:16Z</time>
      </trkpt>
      <trkpt lat="43.50367" lon="6.36371">
        <ele>269.1</ele>
        <time>2024-12-16T12:32:28Z</time>
      </trkpt>
      <trkpt lat="43.50364" lon="6.36383">
        <ele>268.6</ele>
        <time>2024-12-16T12:32:39Z</time>
      </trkpt>
      <trkpt lat="43.5036" lon="6.36396">
        <ele>268.6</ele>
        <time>2024-12-16T12:32:52Z</time>
      </trkpt>
      <trkpt lat="43.50359" lon="6.36409">
        <ele>268</ele>
        <time>2024-12-16T12:33:03Z</time>
      </trkpt>
      <trkpt lat="43.50363" lon="6.36422">
        <ele>267.4</ele>
        <time>2024-12-16T12:33:14Z</time>
      </trkpt>
      <trkpt lat="43.50367" lon="6.36433">
        <ele>266.7</ele>
        <time>2024-12-16T12:33:25Z</time>
      </trkpt>
      <trkpt lat="43.50366" lon="6.36446">
        <ele>266.5</ele>
        <time>2024-12-16T12:33:51Z</time>
      </trkpt>
      <trkpt lat="43.50368" lon="6.36458">
        <ele>266.3</ele>
        <time>2024-12-16T12:33:59Z</time>
      </trkpt>
      <trkpt lat="43.50371" lon="6.3647">
        <ele>266.2</ele>
        <time>2024-12-16T12:34:08Z</time>
      </trkpt>
      <trkpt lat="43.50375" lon="6.36482">
        <ele>266.2</ele>
        <time>2024-12-16T12:34:17Z</time>
      </trkpt>
      <trkpt lat="43.50374" lon="6.36495">
        <ele>266.1</ele>
        <time>2024-12-16T12:34:27Z</time>
      </trkpt>
      <trkpt lat="43.50371" lon="6.36508">
        <ele>265.6</ele>
        <time>2024-12-16T12:34:45Z</time>
      </trkpt>
      <trkpt lat="43.50373" lon="6.36521">
        <ele>265.7</ele>
        <time>2024-12-16T12:34:59Z</time>
      </trkpt>
      <trkpt lat="43.5038" lon="6.36528">
        <ele>265.8</ele>
        <time>2024-12-16T12:35:22Z</time>
      </trkpt>
      <trkpt lat="43.50388" lon="6.36536">
        <ele>265.8</ele>
        <time>2024-12-16T12:35:40Z</time>
      </trkpt>
      <trkpt lat="43.50396" lon="6.36544">
        <ele>266.2</ele>
        <time>2024-12-16T12:35:54Z</time>
      </trkpt>
      <trkpt lat="43.50403" lon="6.36552">
        <ele>266.8</ele>
        <time>2024-12-16T12:36:03Z</time>
      </trkpt>
      <trkpt lat="43.50409" lon="6.36562">
        <ele>267.2</ele>
        <time>2024-12-16T12:36:13Z</time>
      </trkpt>
      <trkpt lat="43.50415" lon="6.36572">
        <ele>267.2</ele>
        <time>2024-12-16T12:36:23Z</time>
      </trkpt>
      <trkpt lat="43.5042" lon="6.36582">
        <ele>267.8</ele>
        <time>2024-12-16T12:36:36Z</time>
      </trkpt>
      <trkpt lat="43.50424" lon="6.36593">
        <ele>267.9</ele>
        <time>2024-12-16T12:36:55Z</time>
      </trkpt>
      <trkpt lat="43.5043" lon="6.36604">
        <ele>267.9</ele>
        <time>2024-12-16T12:37:19Z</time>
      </trkpt>
      <trkpt lat="43.50436" lon="6.36614">
        <ele>268.4</ele>
        <time>2024-12-16T12:37:45Z</time>
      </trkpt>
      <trkpt lat="43.50439" lon="6.36626">
        <ele>268.4</ele>
        <time>2024-12-16T12:37:57Z</time>
      </trkpt>
      <trkpt lat="43.50443" lon="6.36638">
        <ele>268.4</ele>
        <time>2024-12-16T12:38:08Z</time>
      </trkpt>
      <trkpt lat="43.50445" lon="6.36651">
        <ele>268.6</ele>
        <time>2024-12-16T12:38:19Z</time>
      </trkpt>
      <trkpt lat="43.50446" lon="6.36664">
        <ele>268.6</ele>
        <time>2024-12-16T12:38:28Z</time>
      </trkpt>
      <trkpt lat="43.50448" lon="6.36677">
        <ele>268.8</ele>
        <time>2024-12-16T12:38:38Z</time>
      </trkpt>
      <trkpt lat="43.5045" lon="6.3669">
        <ele>269.2</ele>
        <time>2024-12-16T12:38:49Z</time>
      </trkpt>
      <trkpt lat="43.50451" lon="6.36703">
        <ele>269.3</ele>
        <time>2024-12-16T12:39:01Z</time>
      </trkpt>
      <trkpt lat="43.50451" lon="6.36716">
        <ele>269.4</ele>
        <time>2024-12-16T12:39:12Z</time>
      </trkpt>
      <trkpt lat="43.50452" lon="6.36729">
        <ele>269.9</ele>
        <time>2024-12-16T12:39:40Z</time>
      </trkpt>
      <trkpt lat="43.50449" lon="6.36741">
        <ele>270.1</ele>
        <time>2024-12-16T12:40:01Z</time>
      </trkpt>
      <trkpt lat="43.50447" lon="6.36754">
        <ele>270.7</ele>
        <time>2024-12-16T12:40:14Z</time>
      </trkpt>
      <trkpt lat="43.50442" lon="6.36765">
        <ele>270.5</ele>
        <time>2024-12-16T12:40:31Z</time>
      </trkpt>
      <trkpt lat="43.50439" lon="6.36777">
        <ele>270.8</ele>
        <time>2024-12-16T12:41:00Z</time>
      </trkpt>
      <trkpt lat="43.50434" lon="6.36787">
        <ele>271</ele>
        <time>2024-12-16T12:41:18Z</time>
      </trkpt>
      <trkpt lat="43.50429" lon="6.36798">
        <ele>271</ele>
        <time>2024-12-16T12:41:28Z</time>
      </trkpt>
      <trkpt lat="43.50422" lon="6.36808">
        <ele>271.5</ele>
        <time>2024-12-16T12:41:39Z</time>
      </trkpt>
      <trkpt lat="43.50416" lon="6.36817">
        <ele>271.9</ele>
        <time>2024-12-16T12:41:50Z</time>
      </trkpt>
      <trkpt lat="43.5041" lon="6.36825">
        <ele>272</ele>
        <time>2024-12-16T12:41:59Z</time>
      </trkpt>
      <trkpt lat="43.50402" lon="6.36835">
        <ele>272.3</ele>
        <time>2024-12-16T12:42:10Z</time>
      </trkpt>
      <trkpt lat="43.50395" lon="6.36843">
        <ele>272.5</ele>
        <time>2024-12-16T12:42:19Z</time>
      </trkpt>
      <trkpt lat="43.50389" lon="6.36854">
        <ele>272.8</ele>
        <time>2024-12-16T12:42:29Z</time>
      </trkpt>
      <trkpt lat="43.50383" lon="6.36862">
        <ele>273.1</ele>
        <time>2024-12-16T12:42:38Z</time>
      </trkpt>
      <trkpt lat="43.50375" lon="6.36872">
        <ele>273.1</ele>
        <time>2024-12-16T12:42:54Z</time>
      </trkpt>
      <trkpt lat="43.50369" lon="6.36881">
        <ele>273.5</ele>
        <time>2024-12-16T12:43:05Z</time>
      </trkpt>
      <trkpt lat="43.50362" lon="6.3689">
        <ele>273.5</ele>
        <time>2024-12-16T12:43:26Z</time>
      </trkpt>
      <trkpt lat="43.50355" lon="6.36899">
        <ele>273.7</ele>
        <time>2024-12-16T12:43:37Z</time>
      </trkpt>
      <trkpt lat="43.5035" lon="6.36909">
        <ele>273.9</ele>
        <time>2024-12-16T12:43:50Z</time>
      </trkpt>
      <trkpt lat="43.50343" lon="6.36918">
        <ele>274.2</ele>
        <time>2024-12-16T12:44:15Z</time>
      </trkpt>
      <trkpt lat="43.50336" lon="6.36927">
        <ele>274.6</ele>
        <time>2024-12-16T12:44:28Z</time>
      </trkpt>
      <trkpt lat="43.5033" lon="6.36937">
        <ele>274.9</ele>
        <time>2024-12-16T12:44:39Z</time>
      </trkpt>
      <trkpt lat="43.50324" lon="6.36947">
        <ele>275</ele>
        <time>2024-12-16T12:44:49Z</time>
      </trkpt>
      <trkpt lat="43.5032" lon="6.36959">
        <ele>275.5</ele>
        <time>2024-12-16T12:45:01Z</time>
      </trkpt>
      <trkpt lat="43.50318" lon="6.36972">
        <ele>275.3</ele>
        <time>2024-12-16T12:45:09Z</time>
      </trkpt>
      <trkpt lat="43.50311" lon="6.36982">
        <ele>276.1</ele>
        <time>2024-12-16T12:45:23Z</time>
      </trkpt>
      <trkpt lat="43.5031" lon="6.36995">
        <ele>276.3</ele>
        <time>2024-12-16T12:45:40Z</time>
      </trkpt>
      <trkpt lat="43.50306" lon="6.3701">
        <ele>276.6</ele>
        <time>2024-12-16T12:45:50Z</time>
      </trkpt>
      <trkpt lat="43.50302" lon="6.37022">
        <ele>277.4</ele>
        <time>2024-12-16T12:46:00Z</time>
      </trkpt>
      <trkpt lat="43.50302" lon="6.37035">
        <ele>277.3</ele>
        <time>2024-12-16T12:46:16Z</time>
      </trkpt>
      <trkpt lat="43.503" lon="6.37048">
        <ele>277.5</ele>
        <time>2024-12-16T12:46:27Z</time>
      </trkpt>
      <trkpt lat="43.50298" lon="6.37061">
        <ele>277.5</ele>
        <time>2024-12-16T12:46:40Z</time>
      </trkpt>
      <trkpt lat="43.50295" lon="6.37075">
        <ele>277.6</ele>
        <time>2024-12-16T12:46:53Z</time>
      </trkpt>
      <trkpt lat="43.50294" lon="6.37087">
        <ele>277.6</ele>
        <time>2024-12-16T12:47:05Z</time>
      </trkpt>
      <trkpt lat="43.50293" lon="6.371">
        <ele>277.9</ele>
        <time>2024-12-16T12:47:31Z</time>
      </trkpt>
      <trkpt lat="43.5029" lon="6.37113">
        <ele>277.8</ele>
        <time>2024-12-16T12:47:43Z</time>
      </trkpt>
      <trkpt lat="43.50288" lon="6.37125">
        <ele>278.2</ele>
        <time>2024-12-16T12:47:53Z</time>
      </trkpt>
      <trkpt lat="43.50286" lon="6.37137">
        <ele>278.5</ele>
        <time>2024-12-16T12:48:03Z</time>
      </trkpt>
      <trkpt lat="43.50281" lon="6.37149">
        <ele>278.3</ele>
        <time>2024-12-16T12:48:14Z</time>
      </trkpt>
      <trkpt lat="43.50277" lon="6.37159">
        <ele>278.9</ele>
        <time>2024-12-16T12:48:26Z</time>
      </trkpt>
      <trkpt lat="43.50272" lon="6.3717">
        <ele>279.4</ele>
        <time>2024-12-16T12:48:35Z</time>
      </trkpt>
      <trkpt lat="43.50266" lon="6.37181">
        <ele>279.6</ele>
        <time>2024-12-16T12:48:49Z</time>
      </trkpt>
      <trkpt lat="43.50261" lon="6.37191">
        <ele>279.7</ele>
        <time>2024-12-16T12:49:01Z</time>
      </trkpt>
      <trkpt lat="43.50255" lon="6.37201">
        <ele>279.9</ele>
        <time>2024-12-16T12:49:14Z</time>
      </trkpt>
      <trkpt lat="43.50248" lon="6.37211">
        <ele>279.9</ele>
        <time>2024-12-16T12:49:25Z</time>
      </trkpt>
      <trkpt lat="43.50241" lon="6.37219">
        <ele>280.1</ele>
        <time>2024-12-16T12:49:36Z</time>
      </trkpt>
      <trkpt lat="43.50233" lon="6.37226">
        <ele>280.3</ele>
        <time>2024-12-16T12:49:47Z</time>
      </trkpt>
      <trkpt lat="43.50224" lon="6.37232">
        <ele>280.4</ele>
        <time>2024-12-16T12:49:58Z</time>
      </trkpt>
      <trkpt lat="43.50216" lon="6.37239">
        <ele>280.6</ele>
        <time>2024-12-16T12:50:11Z</time>
      </trkpt>
      <trkpt lat="43.50208" lon="6.37246">
        <ele>280.8</ele>
        <time>2024-12-16T12:50:34Z</time>
      </trkpt>
      <trkpt lat="43.50199" lon="6.37249">
        <ele>280.9</ele>
        <time>2024-12-16T12:50:47Z</time>
      </trkpt>
      <trkpt lat="43.5019" lon="6.37255">
        <ele>281.2</ele>
        <time>2024-12-16T12:51:08Z</time>
      </trkpt>
      <trkpt lat="43.50181" lon="6.3726">
        <ele>281.3</ele>
        <time>2024-12-16T12:51:19Z</time>
      </trkpt>
      <trkpt lat="43.50173" lon="6.37266">
        <ele>281.6</ele>
        <time>2024-12-16T12:51:33Z</time>
      </trkpt>
      <trkpt lat="43.50164" lon="6.3727">
        <ele>282.1</ele>
        <time>2024-12-16T12:51:52Z</time>
      </trkpt>
      <trkpt lat="43.50155" lon="6.37272">
        <ele>282.6</ele>
        <time>2024-12-16T12:52:04Z</time>
      </trkpt>
      <trkpt lat="43.50147" lon="6.37279">
        <ele>282.9</ele>
        <time>2024-12-16T12:52:15Z</time>
      </trkpt>
      <trkpt lat="43.50139" lon="6.37286">
        <ele>283.4</ele>
        <time>2024-12-16T12:52:25Z</time>
      </trkpt>
      <trkpt lat="43.50132" lon="6.37294">
        <ele>284.2</ele>
        <time>2024-12-16T12:52:37Z</time>
      </trkpt>
      <trkpt lat="43.50124" lon="6.37301">
        <ele>284.8</ele>
        <time>2024-12-16T12:52:47Z</time>
      </trkpt>
      <trkpt lat="43.50116" lon="6.37308">
        <ele>285.7</ele>
        <time>2024-12-16T12:52:58Z</time>
      </trkpt>
      <trkpt lat="43.50111" lon="6.37318">
        <ele>286.9</ele>
        <time>2024-12-16T12:53:13Z</time>
      </trkpt>
      <trkpt lat="43.50102" lon="6.37323">
        <ele>289.4</ele>
        <time>2024-12-16T12:53:43Z</time>
      </trkpt>
      <trkpt lat="43.50094" lon="6.37328">
        <ele>291.1</ele>
        <time>2024-12-16T12:54:07Z</time>
      </trkpt>
      <trkpt lat="43.50086" lon="6.37336">
        <ele>292</ele>
        <time>2024-12-16T12:54:23Z</time>
      </trkpt>
      <trkpt lat="43.50082" lon="6.37348">
        <ele>292.3</ele>
        <time>2024-12-16T12:54:43Z</time>
      </trkpt>
      <trkpt lat="43.50073" lon="6.3735">
        <ele>291.5</ele>
        <time>2024-12-16T12:56:10Z</time>
      </trkpt>
      <trkpt lat="43.50079" lon="6.37352">
        <ele>290.9</ele>
        <time>2024-12-16T12:56:37Z</time>
      </trkpt>
    </trkseg>
  </trk>
</gpx>